<?xml version="1.0" encoding="UTF-8" standalone="no" ?>
<gpx xmlns="http://www.topografix.com/GPX/1/1" xmlns:xsi="http://www.w3.org/2001/XMLSchema-instance" xsi:schemaLocation="http://www.topografix.com/GPX/1/1 http://www.topografix.com/GPX/1/1/gpx.xsd" version="1.1" creator="VisuGPX - https://www.visugpx.com">
  <metadata>
    <name>47km  rondo du 18 juin-14496561</name>
  </metadata>
  <trk>
    <name><![CDATA[47km  rondo du 18 juin-14496561]]></name>
    <trkseg>
      <trkpt lat="48.89266" lon="-0.20355">
        <ele>143</ele>
        <time>2023-06-12T19:35:03Z</time>
      </trkpt>
      <trkpt lat="48.89242" lon="-0.20356">
        <ele>143</ele>
        <time>2023-06-12T19:35:09Z</time>
      </trkpt>
      <trkpt lat="48.89229" lon="-0.2034">
        <ele>143</ele>
        <time>2023-06-12T19:35:13Z</time>
      </trkpt>
      <trkpt lat="48.89274" lon="-0.20193">
        <ele>140</ele>
        <time>2023-06-12T19:35:37Z</time>
      </trkpt>
      <trkpt lat="48.8924" lon="-0.20149">
        <ele>140</ele>
        <time>2023-06-12T19:35:48Z</time>
      </trkpt>
      <trkpt lat="48.89226" lon="-0.20136">
        <ele>141</ele>
        <time>2023-06-12T19:35:52Z</time>
      </trkpt>
      <trkpt lat="48.89151" lon="-0.20302">
        <ele>147</ele>
        <time>2023-06-12T19:36:23Z</time>
      </trkpt>
      <trkpt lat="48.89105" lon="-0.20315">
        <ele>149</ele>
        <time>2023-06-12T19:36:34Z</time>
      </trkpt>
      <trkpt lat="48.89094" lon="-0.20308">
        <ele>150</ele>
        <time>2023-06-12T19:36:36Z</time>
      </trkpt>
      <trkpt lat="48.89052" lon="-0.20246">
        <ele>154</ele>
        <time>2023-06-12T19:36:50Z</time>
      </trkpt>
      <trkpt lat="48.89013" lon="-0.2021">
        <ele>155</ele>
        <time>2023-06-12T19:37:01Z</time>
      </trkpt>
      <trkpt lat="48.88932" lon="-0.2016">
        <ele>158</ele>
        <time>2023-06-12T19:37:21Z</time>
      </trkpt>
      <trkpt lat="48.88898" lon="-0.2015">
        <ele>158</ele>
        <time>2023-06-12T19:37:29Z</time>
      </trkpt>
      <trkpt lat="48.88864" lon="-0.20156">
        <ele>157</ele>
        <time>2023-06-12T19:37:37Z</time>
      </trkpt>
      <trkpt lat="48.88776" lon="-0.20219">
        <ele>156</ele>
        <time>2023-06-12T19:38:00Z</time>
      </trkpt>
      <trkpt lat="48.88692" lon="-0.20241">
        <ele>161</ele>
        <time>2023-06-12T19:38:20Z</time>
      </trkpt>
      <trkpt lat="48.88611" lon="-0.20281">
        <ele>162</ele>
        <time>2023-06-12T19:38:40Z</time>
      </trkpt>
      <trkpt lat="48.8859" lon="-0.20297">
        <ele>162</ele>
        <time>2023-06-12T19:38:45Z</time>
      </trkpt>
      <trkpt lat="48.88474" lon="-0.20453">
        <ele>164</ele>
        <time>2023-06-12T19:39:21Z</time>
      </trkpt>
      <trkpt lat="48.8843" lon="-0.20551">
        <ele>167</ele>
        <time>2023-06-12T19:39:39Z</time>
      </trkpt>
      <trkpt lat="48.88414" lon="-0.20567">
        <ele>169</ele>
        <time>2023-06-12T19:39:44Z</time>
      </trkpt>
      <trkpt lat="48.88371" lon="-0.20588">
        <ele>171</ele>
        <time>2023-06-12T19:39:55Z</time>
      </trkpt>
      <trkpt lat="48.88346" lon="-0.20574">
        <ele>172</ele>
        <time>2023-06-12T19:40:01Z</time>
      </trkpt>
      <trkpt lat="48.88332" lon="-0.20592">
        <ele>173</ele>
        <time>2023-06-12T19:40:05Z</time>
      </trkpt>
      <trkpt lat="48.88254" lon="-0.20644">
        <ele>174</ele>
        <time>2023-06-12T19:40:25Z</time>
      </trkpt>
      <trkpt lat="48.8823" lon="-0.20673">
        <ele>174</ele>
        <time>2023-06-12T19:40:32Z</time>
      </trkpt>
      <trkpt lat="48.88231" lon="-0.20687">
        <ele>175</ele>
        <time>2023-06-12T19:40:34Z</time>
      </trkpt>
      <trkpt lat="48.88226" lon="-0.207">
        <ele>175</ele>
        <time>2023-06-12T19:40:37Z</time>
      </trkpt>
      <trkpt lat="48.88216" lon="-0.20705">
        <ele>175</ele>
        <time>2023-06-12T19:40:39Z</time>
      </trkpt>
      <trkpt lat="48.88209" lon="-0.20702">
        <ele>175</ele>
        <time>2023-06-12T19:40:41Z</time>
      </trkpt>
      <trkpt lat="48.88126" lon="-0.20806">
        <ele>176</ele>
        <time>2023-06-12T19:41:06Z</time>
      </trkpt>
      <trkpt lat="48.8816" lon="-0.20861">
        <ele>174</ele>
        <time>2023-06-12T19:41:17Z</time>
      </trkpt>
      <trkpt lat="48.88136" lon="-0.20915">
        <ele>173</ele>
        <time>2023-06-12T19:41:27Z</time>
      </trkpt>
      <trkpt lat="48.88118" lon="-0.20949">
        <ele>173</ele>
        <time>2023-06-12T19:41:34Z</time>
      </trkpt>
      <trkpt lat="48.88084" lon="-0.20996">
        <ele>173</ele>
        <time>2023-06-12T19:41:45Z</time>
      </trkpt>
      <trkpt lat="48.88073" lon="-0.21024">
        <ele>173</ele>
        <time>2023-06-12T19:41:50Z</time>
      </trkpt>
      <trkpt lat="48.88021" lon="-0.21097">
        <ele>174</ele>
        <time>2023-06-12T19:42:06Z</time>
      </trkpt>
      <trkpt lat="48.88004" lon="-0.21129">
        <ele>174</ele>
        <time>2023-06-12T19:42:13Z</time>
      </trkpt>
      <trkpt lat="48.87969" lon="-0.21184">
        <ele>174</ele>
        <time>2023-06-12T19:42:24Z</time>
      </trkpt>
      <trkpt lat="48.87792" lon="-0.21458">
        <ele>175</ele>
        <time>2023-06-12T19:43:23Z</time>
      </trkpt>
      <trkpt lat="48.87754" lon="-0.21513">
        <ele>176</ele>
        <time>2023-06-12T19:43:36Z</time>
      </trkpt>
      <trkpt lat="48.87736" lon="-0.21549">
        <ele>177</ele>
        <time>2023-06-12T19:43:43Z</time>
      </trkpt>
      <trkpt lat="48.87713" lon="-0.21604">
        <ele>178</ele>
        <time>2023-06-12T19:43:53Z</time>
      </trkpt>
      <trkpt lat="48.87662" lon="-0.21708">
        <ele>179</ele>
        <time>2023-06-12T19:44:13Z</time>
      </trkpt>
      <trkpt lat="48.87642" lon="-0.21743">
        <ele>179</ele>
        <time>2023-06-12T19:44:20Z</time>
      </trkpt>
      <trkpt lat="48.87614" lon="-0.21803">
        <ele>180</ele>
        <time>2023-06-12T19:44:31Z</time>
      </trkpt>
      <trkpt lat="48.87598" lon="-0.21825">
        <ele>180</ele>
        <time>2023-06-12T19:44:36Z</time>
      </trkpt>
      <trkpt lat="48.8758" lon="-0.21849">
        <ele>180</ele>
        <time>2023-06-12T19:44:42Z</time>
      </trkpt>
      <trkpt lat="48.87437" lon="-0.21994">
        <ele>186</ele>
        <time>2023-06-12T19:45:22Z</time>
      </trkpt>
      <trkpt lat="48.87244" lon="-0.22195">
        <ele>192</ele>
        <time>2023-06-12T19:46:16Z</time>
      </trkpt>
      <trkpt lat="48.87072" lon="-0.22354">
        <ele>200</ele>
        <time>2023-06-12T19:47:03Z</time>
      </trkpt>
      <trkpt lat="48.87059" lon="-0.22375">
        <ele>200</ele>
        <time>2023-06-12T19:47:08Z</time>
      </trkpt>
      <trkpt lat="48.87056" lon="-0.22389">
        <ele>200</ele>
        <time>2023-06-12T19:47:10Z</time>
      </trkpt>
      <trkpt lat="48.8704" lon="-0.22405">
        <ele>201</ele>
        <time>2023-06-12T19:47:15Z</time>
      </trkpt>
      <trkpt lat="48.87022" lon="-0.2242">
        <ele>202</ele>
        <time>2023-06-12T19:47:19Z</time>
      </trkpt>
      <trkpt lat="48.86988" lon="-0.2242">
        <ele>203</ele>
        <time>2023-06-12T19:47:27Z</time>
      </trkpt>
      <trkpt lat="48.86978" lon="-0.22434">
        <ele>202</ele>
        <time>2023-06-12T19:47:30Z</time>
      </trkpt>
      <trkpt lat="48.86976" lon="-0.22489">
        <ele>201</ele>
        <time>2023-06-12T19:47:39Z</time>
      </trkpt>
      <trkpt lat="48.86958" lon="-0.22519">
        <ele>200</ele>
        <time>2023-06-12T19:47:45Z</time>
      </trkpt>
      <trkpt lat="48.86883" lon="-0.22602">
        <ele>199</ele>
        <time>2023-06-12T19:48:07Z</time>
      </trkpt>
      <trkpt lat="48.86748" lon="-0.22787">
        <ele>201</ele>
        <time>2023-06-12T19:48:49Z</time>
      </trkpt>
      <trkpt lat="48.8673" lon="-0.22818">
        <ele>202</ele>
        <time>2023-06-12T19:48:56Z</time>
      </trkpt>
      <trkpt lat="48.86714" lon="-0.22836">
        <ele>203</ele>
        <time>2023-06-12T19:49:00Z</time>
      </trkpt>
      <trkpt lat="48.86668" lon="-0.229">
        <ele>206</ele>
        <time>2023-06-12T19:49:15Z</time>
      </trkpt>
      <trkpt lat="48.86625" lon="-0.22951">
        <ele>207</ele>
        <time>2023-06-12T19:49:28Z</time>
      </trkpt>
      <trkpt lat="48.86607" lon="-0.22962">
        <ele>207</ele>
        <time>2023-06-12T19:49:32Z</time>
      </trkpt>
      <trkpt lat="48.86614" lon="-0.23033">
        <ele>208</ele>
        <time>2023-06-12T19:49:43Z</time>
      </trkpt>
      <trkpt lat="48.86625" lon="-0.23067">
        <ele>208</ele>
        <time>2023-06-12T19:49:49Z</time>
      </trkpt>
      <trkpt lat="48.86631" lon="-0.23078">
        <ele>208</ele>
        <time>2023-06-12T19:49:51Z</time>
      </trkpt>
      <trkpt lat="48.8663" lon="-0.23089">
        <ele>209</ele>
        <time>2023-06-12T19:49:53Z</time>
      </trkpt>
      <trkpt lat="48.86634" lon="-0.23111">
        <ele>209</ele>
        <time>2023-06-12T19:49:56Z</time>
      </trkpt>
      <trkpt lat="48.86666" lon="-0.23257">
        <ele>211</ele>
        <time>2023-06-12T19:50:20Z</time>
      </trkpt>
      <trkpt lat="48.86696" lon="-0.23331">
        <ele>211</ele>
        <time>2023-06-12T19:50:33Z</time>
      </trkpt>
      <trkpt lat="48.86737" lon="-0.23526">
        <ele>212</ele>
        <time>2023-06-12T19:51:05Z</time>
      </trkpt>
      <trkpt lat="48.86773" lon="-0.23724">
        <ele>216</ele>
        <time>2023-06-12T19:51:36Z</time>
      </trkpt>
      <trkpt lat="48.8681" lon="-0.23883">
        <ele>218</ele>
        <time>2023-06-12T19:52:02Z</time>
      </trkpt>
      <trkpt lat="48.86831" lon="-0.23942">
        <ele>219</ele>
        <time>2023-06-12T19:52:13Z</time>
      </trkpt>
      <trkpt lat="48.8687" lon="-0.24036">
        <ele>220</ele>
        <time>2023-06-12T19:52:30Z</time>
      </trkpt>
      <trkpt lat="48.86878" lon="-0.24091">
        <ele>220</ele>
        <time>2023-06-12T19:52:38Z</time>
      </trkpt>
      <trkpt lat="48.86927" lon="-0.24224">
        <ele>218</ele>
        <time>2023-06-12T19:53:02Z</time>
      </trkpt>
      <trkpt lat="48.86944" lon="-0.24334">
        <ele>218</ele>
        <time>2023-06-12T19:53:19Z</time>
      </trkpt>
      <trkpt lat="48.86997" lon="-0.24509">
        <ele>215</ele>
        <time>2023-06-12T19:53:49Z</time>
      </trkpt>
      <trkpt lat="48.87022" lon="-0.2458">
        <ele>213</ele>
        <time>2023-06-12T19:54:01Z</time>
      </trkpt>
      <trkpt lat="48.86906" lon="-0.24824">
        <ele>218</ele>
        <time>2023-06-12T19:54:47Z</time>
      </trkpt>
      <trkpt lat="48.86878" lon="-0.24873">
        <ele>220</ele>
        <time>2023-06-12T19:54:57Z</time>
      </trkpt>
      <trkpt lat="48.86769" lon="-0.2503">
        <ele>227</ele>
        <time>2023-06-12T19:55:32Z</time>
      </trkpt>
      <trkpt lat="48.86771" lon="-0.25048">
        <ele>227</ele>
        <time>2023-06-12T19:55:35Z</time>
      </trkpt>
      <trkpt lat="48.86767" lon="-0.25092">
        <ele>228</ele>
        <time>2023-06-12T19:55:42Z</time>
      </trkpt>
      <trkpt lat="48.86771" lon="-0.25122">
        <ele>229</ele>
        <time>2023-06-12T19:55:47Z</time>
      </trkpt>
      <trkpt lat="48.8678" lon="-0.25158">
        <ele>229</ele>
        <time>2023-06-12T19:55:53Z</time>
      </trkpt>
      <trkpt lat="48.86793" lon="-0.25205">
        <ele>230</ele>
        <time>2023-06-12T19:56:00Z</time>
      </trkpt>
      <trkpt lat="48.868" lon="-0.25222">
        <ele>231</ele>
        <time>2023-06-12T19:56:03Z</time>
      </trkpt>
      <trkpt lat="48.86836" lon="-0.25399">
        <ele>234</ele>
        <time>2023-06-12T19:56:32Z</time>
      </trkpt>
      <trkpt lat="48.86901" lon="-0.25662">
        <ele>232</ele>
        <time>2023-06-12T19:57:15Z</time>
      </trkpt>
      <trkpt lat="48.86914" lon="-0.2574">
        <ele>234</ele>
        <time>2023-06-12T19:57:27Z</time>
      </trkpt>
      <trkpt lat="48.86919" lon="-0.25811">
        <ele>235</ele>
        <time>2023-06-12T19:57:38Z</time>
      </trkpt>
      <trkpt lat="48.86927" lon="-0.2587">
        <ele>234</ele>
        <time>2023-06-12T19:57:48Z</time>
      </trkpt>
      <trkpt lat="48.86934" lon="-0.2602">
        <ele>237</ele>
        <time>2023-06-12T19:58:11Z</time>
      </trkpt>
      <trkpt lat="48.86973" lon="-0.26249">
        <ele>238</ele>
        <time>2023-06-12T19:58:47Z</time>
      </trkpt>
      <trkpt lat="48.86988" lon="-0.26374">
        <ele>240</ele>
        <time>2023-06-12T19:59:07Z</time>
      </trkpt>
      <trkpt lat="48.86998" lon="-0.26515">
        <ele>242</ele>
        <time>2023-06-12T19:59:28Z</time>
      </trkpt>
      <trkpt lat="48.87006" lon="-0.26568">
        <ele>241</ele>
        <time>2023-06-12T19:59:37Z</time>
      </trkpt>
      <trkpt lat="48.87011" lon="-0.26665">
        <ele>241</ele>
        <time>2023-06-12T19:59:52Z</time>
      </trkpt>
      <trkpt lat="48.87033" lon="-0.26814">
        <ele>239</ele>
        <time>2023-06-12T20:00:15Z</time>
      </trkpt>
      <trkpt lat="48.87071" lon="-0.26973">
        <ele>239</ele>
        <time>2023-06-12T20:00:41Z</time>
      </trkpt>
      <trkpt lat="48.87096" lon="-0.27103">
        <ele>230</ele>
        <time>2023-06-12T20:01:02Z</time>
      </trkpt>
      <trkpt lat="48.8715" lon="-0.27155">
        <ele>226</ele>
        <time>2023-06-12T20:01:17Z</time>
      </trkpt>
      <trkpt lat="48.87175" lon="-0.27185">
        <ele>225</ele>
        <time>2023-06-12T20:01:24Z</time>
      </trkpt>
      <trkpt lat="48.87193" lon="-0.27236">
        <ele>220</ele>
        <time>2023-06-12T20:01:33Z</time>
      </trkpt>
      <trkpt lat="48.87206" lon="-0.27265">
        <ele>219</ele>
        <time>2023-06-12T20:01:39Z</time>
      </trkpt>
      <trkpt lat="48.87215" lon="-0.27275">
        <ele>219</ele>
        <time>2023-06-12T20:01:41Z</time>
      </trkpt>
      <trkpt lat="48.87253" lon="-0.27275">
        <ele>219</ele>
        <time>2023-06-12T20:01:50Z</time>
      </trkpt>
      <trkpt lat="48.87261" lon="-0.27347">
        <ele>220</ele>
        <time>2023-06-12T20:02:01Z</time>
      </trkpt>
      <trkpt lat="48.87259" lon="-0.27408">
        <ele>222</ele>
        <time>2023-06-12T20:02:11Z</time>
      </trkpt>
      <trkpt lat="48.87251" lon="-0.27505">
        <ele>225</ele>
        <time>2023-06-12T20:02:26Z</time>
      </trkpt>
      <trkpt lat="48.87254" lon="-0.27562">
        <ele>227</ele>
        <time>2023-06-12T20:02:35Z</time>
      </trkpt>
      <trkpt lat="48.87262" lon="-0.27617">
        <ele>229</ele>
        <time>2023-06-12T20:02:43Z</time>
      </trkpt>
      <trkpt lat="48.8728" lon="-0.27632">
        <ele>229</ele>
        <time>2023-06-12T20:02:48Z</time>
      </trkpt>
      <trkpt lat="48.87315" lon="-0.27645">
        <ele>230</ele>
        <time>2023-06-12T20:02:56Z</time>
      </trkpt>
      <trkpt lat="48.87332" lon="-0.27656">
        <ele>231</ele>
        <time>2023-06-12T20:03:01Z</time>
      </trkpt>
      <trkpt lat="48.87351" lon="-0.27676">
        <ele>230</ele>
        <time>2023-06-12T20:03:06Z</time>
      </trkpt>
      <trkpt lat="48.8737" lon="-0.27705">
        <ele>230</ele>
        <time>2023-06-12T20:03:12Z</time>
      </trkpt>
      <trkpt lat="48.87392" lon="-0.27746">
        <ele>229</ele>
        <time>2023-06-12T20:03:20Z</time>
      </trkpt>
      <trkpt lat="48.87416" lon="-0.2778">
        <ele>229</ele>
        <time>2023-06-12T20:03:28Z</time>
      </trkpt>
      <trkpt lat="48.87438" lon="-0.27802">
        <ele>229</ele>
        <time>2023-06-12T20:03:34Z</time>
      </trkpt>
      <trkpt lat="48.87464" lon="-0.27816">
        <ele>229</ele>
        <time>2023-06-12T20:03:41Z</time>
      </trkpt>
      <trkpt lat="48.87468" lon="-0.27845">
        <ele>228</ele>
        <time>2023-06-12T20:03:45Z</time>
      </trkpt>
      <trkpt lat="48.87602" lon="-0.28184">
        <ele>220</ele>
        <time>2023-06-12T20:04:46Z</time>
      </trkpt>
      <trkpt lat="48.87692" lon="-0.28422">
        <ele>219</ele>
        <time>2023-06-12T20:05:28Z</time>
      </trkpt>
      <trkpt lat="48.87711" lon="-0.28496">
        <ele>219</ele>
        <time>2023-06-12T20:05:40Z</time>
      </trkpt>
      <trkpt lat="48.87749" lon="-0.28596">
        <ele>220</ele>
        <time>2023-06-12T20:05:58Z</time>
      </trkpt>
      <trkpt lat="48.8776" lon="-0.28665">
        <ele>220</ele>
        <time>2023-06-12T20:06:09Z</time>
      </trkpt>
      <trkpt lat="48.878" lon="-0.28808">
        <ele>218</ele>
        <time>2023-06-12T20:06:33Z</time>
      </trkpt>
      <trkpt lat="48.87841" lon="-0.28831">
        <ele>218</ele>
        <time>2023-06-12T20:06:43Z</time>
      </trkpt>
      <trkpt lat="48.87851" lon="-0.28848">
        <ele>218</ele>
        <time>2023-06-12T20:06:47Z</time>
      </trkpt>
      <trkpt lat="48.87767" lon="-0.28978">
        <ele>217</ele>
        <time>2023-06-12T20:07:15Z</time>
      </trkpt>
      <trkpt lat="48.87598" lon="-0.29104">
        <ele>209</ele>
        <time>2023-06-12T20:07:59Z</time>
      </trkpt>
      <trkpt lat="48.87544" lon="-0.29138">
        <ele>207</ele>
        <time>2023-06-12T20:08:12Z</time>
      </trkpt>
      <trkpt lat="48.87496" lon="-0.29185">
        <ele>205</ele>
        <time>2023-06-12T20:08:26Z</time>
      </trkpt>
      <trkpt lat="48.87447" lon="-0.29227">
        <ele>202</ele>
        <time>2023-06-12T20:08:39Z</time>
      </trkpt>
      <trkpt lat="48.87414" lon="-0.29307">
        <ele>201</ele>
        <time>2023-06-12T20:08:53Z</time>
      </trkpt>
      <trkpt lat="48.87399" lon="-0.29337">
        <ele>201</ele>
        <time>2023-06-12T20:08:59Z</time>
      </trkpt>
      <trkpt lat="48.87388" lon="-0.29358">
        <ele>201</ele>
        <time>2023-06-12T20:09:03Z</time>
      </trkpt>
      <trkpt lat="48.87355" lon="-0.29403">
        <ele>200</ele>
        <time>2023-06-12T20:09:13Z</time>
      </trkpt>
      <trkpt lat="48.87342" lon="-0.29414">
        <ele>200</ele>
        <time>2023-06-12T20:09:17Z</time>
      </trkpt>
      <trkpt lat="48.87293" lon="-0.29429">
        <ele>198</ele>
        <time>2023-06-12T20:09:29Z</time>
      </trkpt>
      <trkpt lat="48.87272" lon="-0.29433">
        <ele>196</ele>
        <time>2023-06-12T20:09:34Z</time>
      </trkpt>
      <trkpt lat="48.87215" lon="-0.2946">
        <ele>195</ele>
        <time>2023-06-12T20:09:47Z</time>
      </trkpt>
      <trkpt lat="48.87178" lon="-0.29469">
        <ele>196</ele>
        <time>2023-06-12T20:09:56Z</time>
      </trkpt>
      <trkpt lat="48.87152" lon="-0.29483">
        <ele>197</ele>
        <time>2023-06-12T20:10:03Z</time>
      </trkpt>
      <trkpt lat="48.8711" lon="-0.29528">
        <ele>198</ele>
        <time>2023-06-12T20:10:15Z</time>
      </trkpt>
      <trkpt lat="48.8695" lon="-0.29677">
        <ele>199</ele>
        <time>2023-06-12T20:10:58Z</time>
      </trkpt>
      <trkpt lat="48.86969" lon="-0.29725">
        <ele>200</ele>
        <time>2023-06-12T20:11:07Z</time>
      </trkpt>
      <trkpt lat="48.86988" lon="-0.29761">
        <ele>201</ele>
        <time>2023-06-12T20:11:14Z</time>
      </trkpt>
      <trkpt lat="48.87005" lon="-0.29811">
        <ele>203</ele>
        <time>2023-06-12T20:11:23Z</time>
      </trkpt>
      <trkpt lat="48.87008" lon="-0.29826">
        <ele>204</ele>
        <time>2023-06-12T20:11:25Z</time>
      </trkpt>
      <trkpt lat="48.87006" lon="-0.29889">
        <ele>204</ele>
        <time>2023-06-12T20:11:35Z</time>
      </trkpt>
      <trkpt lat="48.87014" lon="-0.2992">
        <ele>204</ele>
        <time>2023-06-12T20:11:40Z</time>
      </trkpt>
      <trkpt lat="48.87033" lon="-0.29963">
        <ele>204</ele>
        <time>2023-06-12T20:11:48Z</time>
      </trkpt>
      <trkpt lat="48.87042" lon="-0.29976">
        <ele>203</ele>
        <time>2023-06-12T20:11:51Z</time>
      </trkpt>
      <trkpt lat="48.87044" lon="-0.29993">
        <ele>203</ele>
        <time>2023-06-12T20:11:54Z</time>
      </trkpt>
      <trkpt lat="48.87078" lon="-0.30076">
        <ele>203</ele>
        <time>2023-06-12T20:12:09Z</time>
      </trkpt>
      <trkpt lat="48.87118" lon="-0.30161">
        <ele>204</ele>
        <time>2023-06-12T20:12:25Z</time>
      </trkpt>
      <trkpt lat="48.8712" lon="-0.30171">
        <ele>204</ele>
        <time>2023-06-12T20:12:26Z</time>
      </trkpt>
      <trkpt lat="48.87116" lon="-0.3018">
        <ele>204</ele>
        <time>2023-06-12T20:12:28Z</time>
      </trkpt>
      <trkpt lat="48.87097" lon="-0.30196">
        <ele>204</ele>
        <time>2023-06-12T20:12:33Z</time>
      </trkpt>
      <trkpt lat="48.87001" lon="-0.3029">
        <ele>204</ele>
        <time>2023-06-12T20:13:00Z</time>
      </trkpt>
      <trkpt lat="48.86984" lon="-0.30307">
        <ele>204</ele>
        <time>2023-06-12T20:13:04Z</time>
      </trkpt>
      <trkpt lat="48.86976" lon="-0.30319">
        <ele>204</ele>
        <time>2023-06-12T20:13:07Z</time>
      </trkpt>
      <trkpt lat="48.8697" lon="-0.30335">
        <ele>205</ele>
        <time>2023-06-12T20:13:10Z</time>
      </trkpt>
      <trkpt lat="48.86925" lon="-0.3057">
        <ele>206</ele>
        <time>2023-06-12T20:13:47Z</time>
      </trkpt>
      <trkpt lat="48.86907" lon="-0.30638">
        <ele>207</ele>
        <time>2023-06-12T20:13:59Z</time>
      </trkpt>
      <trkpt lat="48.86903" lon="-0.30645">
        <ele>208</ele>
        <time>2023-06-12T20:14:00Z</time>
      </trkpt>
      <trkpt lat="48.86866" lon="-0.30702">
        <ele>209</ele>
        <time>2023-06-12T20:14:12Z</time>
      </trkpt>
      <trkpt lat="48.86832" lon="-0.30721">
        <ele>210</ele>
        <time>2023-06-12T20:14:21Z</time>
      </trkpt>
      <trkpt lat="48.86785" lon="-0.30753">
        <ele>209</ele>
        <time>2023-06-12T20:14:33Z</time>
      </trkpt>
      <trkpt lat="48.86729" lon="-0.30803">
        <ele>208</ele>
        <time>2023-06-12T20:14:48Z</time>
      </trkpt>
      <trkpt lat="48.86747" lon="-0.30871">
        <ele>209</ele>
        <time>2023-06-12T20:14:59Z</time>
      </trkpt>
      <trkpt lat="48.86769" lon="-0.31017">
        <ele>211</ele>
        <time>2023-06-12T20:15:22Z</time>
      </trkpt>
      <trkpt lat="48.86795" lon="-0.31058">
        <ele>211</ele>
        <time>2023-06-12T20:15:31Z</time>
      </trkpt>
      <trkpt lat="48.8686" lon="-0.31264">
        <ele>211</ele>
        <time>2023-06-12T20:16:06Z</time>
      </trkpt>
      <trkpt lat="48.86797" lon="-0.31432">
        <ele>211</ele>
        <time>2023-06-12T20:16:36Z</time>
      </trkpt>
      <trkpt lat="48.86741" lon="-0.31565">
        <ele>210</ele>
        <time>2023-06-12T20:17:00Z</time>
      </trkpt>
      <trkpt lat="48.86741" lon="-0.31588">
        <ele>209</ele>
        <time>2023-06-12T20:17:04Z</time>
      </trkpt>
      <trkpt lat="48.86744" lon="-0.31612">
        <ele>208</ele>
        <time>2023-06-12T20:17:07Z</time>
      </trkpt>
      <trkpt lat="48.86766" lon="-0.31674">
        <ele>204</ele>
        <time>2023-06-12T20:17:18Z</time>
      </trkpt>
      <trkpt lat="48.8677" lon="-0.31692">
        <ele>202</ele>
        <time>2023-06-12T20:17:21Z</time>
      </trkpt>
      <trkpt lat="48.86799" lon="-0.3188">
        <ele>189</ele>
        <time>2023-06-12T20:17:51Z</time>
      </trkpt>
      <trkpt lat="48.86795" lon="-0.3209">
        <ele>176</ele>
        <time>2023-06-12T20:18:23Z</time>
      </trkpt>
      <trkpt lat="48.86828" lon="-0.32104">
        <ele>174</ele>
        <time>2023-06-12T20:18:31Z</time>
      </trkpt>
      <trkpt lat="48.86845" lon="-0.32122">
        <ele>170</ele>
        <time>2023-06-12T20:18:36Z</time>
      </trkpt>
      <trkpt lat="48.86852" lon="-0.32144">
        <ele>167</ele>
        <time>2023-06-12T20:18:40Z</time>
      </trkpt>
      <trkpt lat="48.86866" lon="-0.32219">
        <ele>160</ele>
        <time>2023-06-12T20:18:52Z</time>
      </trkpt>
      <trkpt lat="48.86871" lon="-0.32284">
        <ele>156</ele>
        <time>2023-06-12T20:19:02Z</time>
      </trkpt>
      <trkpt lat="48.86849" lon="-0.32388">
        <ele>148</ele>
        <time>2023-06-12T20:19:19Z</time>
      </trkpt>
      <trkpt lat="48.86826" lon="-0.32421">
        <ele>143</ele>
        <time>2023-06-12T20:19:26Z</time>
      </trkpt>
      <trkpt lat="48.86802" lon="-0.32441">
        <ele>142</ele>
        <time>2023-06-12T20:19:32Z</time>
      </trkpt>
      <trkpt lat="48.86797" lon="-0.32448">
        <ele>142</ele>
        <time>2023-06-12T20:19:34Z</time>
      </trkpt>
      <trkpt lat="48.86785" lon="-0.32478">
        <ele>141</ele>
        <time>2023-06-12T20:19:39Z</time>
      </trkpt>
      <trkpt lat="48.86781" lon="-0.32501">
        <ele>141</ele>
        <time>2023-06-12T20:19:43Z</time>
      </trkpt>
      <trkpt lat="48.86757" lon="-0.32514">
        <ele>141</ele>
        <time>2023-06-12T20:19:49Z</time>
      </trkpt>
      <trkpt lat="48.86742" lon="-0.32537">
        <ele>142</ele>
        <time>2023-06-12T20:19:54Z</time>
      </trkpt>
      <trkpt lat="48.86728" lon="-0.3254">
        <ele>142</ele>
        <time>2023-06-12T20:19:57Z</time>
      </trkpt>
      <trkpt lat="48.86723" lon="-0.32544">
        <ele>142</ele>
        <time>2023-06-12T20:19:58Z</time>
      </trkpt>
      <trkpt lat="48.86716" lon="-0.32564">
        <ele>143</ele>
        <time>2023-06-12T20:20:02Z</time>
      </trkpt>
      <trkpt lat="48.86703" lon="-0.32571">
        <ele>143</ele>
        <time>2023-06-12T20:20:05Z</time>
      </trkpt>
      <trkpt lat="48.86647" lon="-0.32616">
        <ele>149</ele>
        <time>2023-06-12T20:20:20Z</time>
      </trkpt>
      <trkpt lat="48.86625" lon="-0.32616">
        <ele>148</ele>
        <time>2023-06-12T20:20:25Z</time>
      </trkpt>
      <trkpt lat="48.86599" lon="-0.32624">
        <ele>148</ele>
        <time>2023-06-12T20:20:31Z</time>
      </trkpt>
      <trkpt lat="48.8658" lon="-0.32634">
        <ele>148</ele>
        <time>2023-06-12T20:20:36Z</time>
      </trkpt>
      <trkpt lat="48.86558" lon="-0.3265">
        <ele>148</ele>
        <time>2023-06-12T20:20:42Z</time>
      </trkpt>
      <trkpt lat="48.86536" lon="-0.32693">
        <ele>149</ele>
        <time>2023-06-12T20:20:50Z</time>
      </trkpt>
      <trkpt lat="48.8653" lon="-0.32712">
        <ele>149</ele>
        <time>2023-06-12T20:20:53Z</time>
      </trkpt>
      <trkpt lat="48.86526" lon="-0.32787">
        <ele>152</ele>
        <time>2023-06-12T20:21:05Z</time>
      </trkpt>
      <trkpt lat="48.86514" lon="-0.32834">
        <ele>150</ele>
        <time>2023-06-12T20:21:13Z</time>
      </trkpt>
      <trkpt lat="48.865" lon="-0.32864">
        <ele>152</ele>
        <time>2023-06-12T20:21:18Z</time>
      </trkpt>
      <trkpt lat="48.86487" lon="-0.32871">
        <ele>152</ele>
        <time>2023-06-12T20:21:21Z</time>
      </trkpt>
      <trkpt lat="48.86463" lon="-0.32892">
        <ele>151</ele>
        <time>2023-06-12T20:21:28Z</time>
      </trkpt>
      <trkpt lat="48.86444" lon="-0.32905">
        <ele>148</ele>
        <time>2023-06-12T20:21:33Z</time>
      </trkpt>
      <trkpt lat="48.86419" lon="-0.32917">
        <ele>142</ele>
        <time>2023-06-12T20:21:39Z</time>
      </trkpt>
      <trkpt lat="48.86408" lon="-0.32934">
        <ele>144</ele>
        <time>2023-06-12T20:21:43Z</time>
      </trkpt>
      <trkpt lat="48.86364" lon="-0.32989">
        <ele>145</ele>
        <time>2023-06-12T20:21:56Z</time>
      </trkpt>
      <trkpt lat="48.86331" lon="-0.33038">
        <ele>145</ele>
        <time>2023-06-12T20:22:07Z</time>
      </trkpt>
      <trkpt lat="48.86318" lon="-0.33052">
        <ele>147</ele>
        <time>2023-06-12T20:22:10Z</time>
      </trkpt>
      <trkpt lat="48.86314" lon="-0.33062">
        <ele>148</ele>
        <time>2023-06-12T20:22:12Z</time>
      </trkpt>
      <trkpt lat="48.86304" lon="-0.33111">
        <ele>157</ele>
        <time>2023-06-12T20:22:20Z</time>
      </trkpt>
      <trkpt lat="48.8629" lon="-0.33163">
        <ele>165</ele>
        <time>2023-06-12T20:22:29Z</time>
      </trkpt>
      <trkpt lat="48.86272" lon="-0.33285">
        <ele>177</ele>
        <time>2023-06-12T20:22:48Z</time>
      </trkpt>
      <trkpt lat="48.86288" lon="-0.33455">
        <ele>182</ele>
        <time>2023-06-12T20:23:14Z</time>
      </trkpt>
      <trkpt lat="48.86303" lon="-0.33517">
        <ele>185</ele>
        <time>2023-06-12T20:23:24Z</time>
      </trkpt>
      <trkpt lat="48.86337" lon="-0.33595">
        <ele>193</ele>
        <time>2023-06-12T20:23:39Z</time>
      </trkpt>
      <trkpt lat="48.86351" lon="-0.33648">
        <ele>195</ele>
        <time>2023-06-12T20:23:48Z</time>
      </trkpt>
      <trkpt lat="48.86352" lon="-0.33664">
        <ele>195</ele>
        <time>2023-06-12T20:23:50Z</time>
      </trkpt>
      <trkpt lat="48.86366" lon="-0.3368">
        <ele>197</ele>
        <time>2023-06-12T20:23:54Z</time>
      </trkpt>
      <trkpt lat="48.86384" lon="-0.33677">
        <ele>199</ele>
        <time>2023-06-12T20:23:58Z</time>
      </trkpt>
      <trkpt lat="48.86393" lon="-0.3374">
        <ele>201</ele>
        <time>2023-06-12T20:24:08Z</time>
      </trkpt>
      <trkpt lat="48.86396" lon="-0.33774">
        <ele>202</ele>
        <time>2023-06-12T20:24:14Z</time>
      </trkpt>
      <trkpt lat="48.86395" lon="-0.33801">
        <ele>201</ele>
        <time>2023-06-12T20:24:18Z</time>
      </trkpt>
      <trkpt lat="48.8639" lon="-0.3384">
        <ele>200</ele>
        <time>2023-06-12T20:24:24Z</time>
      </trkpt>
      <trkpt lat="48.86375" lon="-0.33874">
        <ele>199</ele>
        <time>2023-06-12T20:24:30Z</time>
      </trkpt>
      <trkpt lat="48.86366" lon="-0.33883">
        <ele>198</ele>
        <time>2023-06-12T20:24:33Z</time>
      </trkpt>
      <trkpt lat="48.86341" lon="-0.33893">
        <ele>195</ele>
        <time>2023-06-12T20:24:39Z</time>
      </trkpt>
      <trkpt lat="48.86304" lon="-0.33902">
        <ele>192</ele>
        <time>2023-06-12T20:24:47Z</time>
      </trkpt>
      <trkpt lat="48.86249" lon="-0.33951">
        <ele>190</ele>
        <time>2023-06-12T20:25:02Z</time>
      </trkpt>
      <trkpt lat="48.86199" lon="-0.3401">
        <ele>189</ele>
        <time>2023-06-12T20:25:17Z</time>
      </trkpt>
      <trkpt lat="48.86174" lon="-0.34069">
        <ele>188</ele>
        <time>2023-06-12T20:25:28Z</time>
      </trkpt>
      <trkpt lat="48.86167" lon="-0.34062">
        <ele>188</ele>
        <time>2023-06-12T20:25:30Z</time>
      </trkpt>
      <trkpt lat="48.86096" lon="-0.33944">
        <ele>183</ele>
        <time>2023-06-12T20:25:54Z</time>
      </trkpt>
      <trkpt lat="48.86016" lon="-0.33821">
        <ele>178</ele>
        <time>2023-06-12T20:26:21Z</time>
      </trkpt>
      <trkpt lat="48.8578" lon="-0.33435">
        <ele>149</ele>
        <time>2023-06-12T20:27:42Z</time>
      </trkpt>
      <trkpt lat="48.85768" lon="-0.33441">
        <ele>148</ele>
        <time>2023-06-12T20:27:45Z</time>
      </trkpt>
      <trkpt lat="48.85755" lon="-0.33454">
        <ele>148</ele>
        <time>2023-06-12T20:27:49Z</time>
      </trkpt>
      <trkpt lat="48.85728" lon="-0.33488">
        <ele>147</ele>
        <time>2023-06-12T20:27:57Z</time>
      </trkpt>
      <trkpt lat="48.85721" lon="-0.33502">
        <ele>147</ele>
        <time>2023-06-12T20:27:59Z</time>
      </trkpt>
      <trkpt lat="48.85665" lon="-0.33574">
        <ele>146</ele>
        <time>2023-06-12T20:28:17Z</time>
      </trkpt>
      <trkpt lat="48.85659" lon="-0.33587">
        <ele>146</ele>
        <time>2023-06-12T20:28:19Z</time>
      </trkpt>
      <trkpt lat="48.85652" lon="-0.33588">
        <ele>145</ele>
        <time>2023-06-12T20:28:21Z</time>
      </trkpt>
      <trkpt lat="48.85588" lon="-0.33641">
        <ele>142</ele>
        <time>2023-06-12T20:28:38Z</time>
      </trkpt>
      <trkpt lat="48.85582" lon="-0.33638">
        <ele>142</ele>
        <time>2023-06-12T20:28:39Z</time>
      </trkpt>
      <trkpt lat="48.8557" lon="-0.33643">
        <ele>141</ele>
        <time>2023-06-12T20:28:42Z</time>
      </trkpt>
      <trkpt lat="48.85474" lon="-0.33689">
        <ele>133</ele>
        <time>2023-06-12T20:29:06Z</time>
      </trkpt>
      <trkpt lat="48.85443" lon="-0.33719">
        <ele>130</ele>
        <time>2023-06-12T20:29:14Z</time>
      </trkpt>
      <trkpt lat="48.8539" lon="-0.33844">
        <ele>122</ele>
        <time>2023-06-12T20:29:37Z</time>
      </trkpt>
      <trkpt lat="48.85354" lon="-0.33857">
        <ele>120</ele>
        <time>2023-06-12T20:29:46Z</time>
      </trkpt>
      <trkpt lat="48.85308" lon="-0.33863">
        <ele>116</ele>
        <time>2023-06-12T20:29:56Z</time>
      </trkpt>
      <trkpt lat="48.85298" lon="-0.33871">
        <ele>115</ele>
        <time>2023-06-12T20:29:59Z</time>
      </trkpt>
      <trkpt lat="48.85293" lon="-0.33877">
        <ele>114</ele>
        <time>2023-06-12T20:30:01Z</time>
      </trkpt>
      <trkpt lat="48.85289" lon="-0.33888">
        <ele>114</ele>
        <time>2023-06-12T20:30:02Z</time>
      </trkpt>
      <trkpt lat="48.85276" lon="-0.33951">
        <ele>114</ele>
        <time>2023-06-12T20:30:13Z</time>
      </trkpt>
      <trkpt lat="48.85259" lon="-0.33986">
        <ele>113</ele>
        <time>2023-06-12T20:30:19Z</time>
      </trkpt>
      <trkpt lat="48.8524" lon="-0.3401">
        <ele>111</ele>
        <time>2023-06-12T20:30:25Z</time>
      </trkpt>
      <trkpt lat="48.852" lon="-0.34035">
        <ele>106</ele>
        <time>2023-06-12T20:30:35Z</time>
      </trkpt>
      <trkpt lat="48.85129" lon="-0.34065">
        <ele>97</ele>
        <time>2023-06-12T20:30:52Z</time>
      </trkpt>
      <trkpt lat="48.85115" lon="-0.34073">
        <ele>96</ele>
        <time>2023-06-12T20:30:56Z</time>
      </trkpt>
      <trkpt lat="48.85075" lon="-0.34112">
        <ele>91</ele>
        <time>2023-06-12T20:31:07Z</time>
      </trkpt>
      <trkpt lat="48.84987" lon="-0.34179">
        <ele>83</ele>
        <time>2023-06-12T20:31:30Z</time>
      </trkpt>
      <trkpt lat="48.84942" lon="-0.34225">
        <ele>78</ele>
        <time>2023-06-12T20:31:43Z</time>
      </trkpt>
      <trkpt lat="48.84933" lon="-0.34237">
        <ele>77</ele>
        <time>2023-06-12T20:31:45Z</time>
      </trkpt>
      <trkpt lat="48.84933" lon="-0.34246">
        <ele>76</ele>
        <time>2023-06-12T20:31:47Z</time>
      </trkpt>
      <trkpt lat="48.84939" lon="-0.3426">
        <ele>76</ele>
        <time>2023-06-12T20:31:49Z</time>
      </trkpt>
      <trkpt lat="48.84951" lon="-0.34276">
        <ele>76</ele>
        <time>2023-06-12T20:31:53Z</time>
      </trkpt>
      <trkpt lat="48.8498" lon="-0.34299">
        <ele>75</ele>
        <time>2023-06-12T20:32:01Z</time>
      </trkpt>
      <trkpt lat="48.85016" lon="-0.34316">
        <ele>77</ele>
        <time>2023-06-12T20:32:10Z</time>
      </trkpt>
      <trkpt lat="48.85039" lon="-0.34338">
        <ele>79</ele>
        <time>2023-06-12T20:32:16Z</time>
      </trkpt>
      <trkpt lat="48.85099" lon="-0.34449">
        <ele>82</ele>
        <time>2023-06-12T20:32:38Z</time>
      </trkpt>
      <trkpt lat="48.85115" lon="-0.34488">
        <ele>84</ele>
        <time>2023-06-12T20:32:45Z</time>
      </trkpt>
      <trkpt lat="48.85125" lon="-0.3454">
        <ele>87</ele>
        <time>2023-06-12T20:32:53Z</time>
      </trkpt>
      <trkpt lat="48.85127" lon="-0.34595">
        <ele>87</ele>
        <time>2023-06-12T20:33:02Z</time>
      </trkpt>
      <trkpt lat="48.85123" lon="-0.34631">
        <ele>87</ele>
        <time>2023-06-12T20:33:07Z</time>
      </trkpt>
      <trkpt lat="48.85115" lon="-0.34668">
        <ele>86</ele>
        <time>2023-06-12T20:33:13Z</time>
      </trkpt>
      <trkpt lat="48.85095" lon="-0.34737">
        <ele>81</ele>
        <time>2023-06-12T20:33:25Z</time>
      </trkpt>
      <trkpt lat="48.85086" lon="-0.34795">
        <ele>79</ele>
        <time>2023-06-12T20:33:34Z</time>
      </trkpt>
      <trkpt lat="48.8507" lon="-0.35109">
        <ele>82</ele>
        <time>2023-06-12T20:34:23Z</time>
      </trkpt>
      <trkpt lat="48.85069" lon="-0.35262">
        <ele>80</ele>
        <time>2023-06-12T20:34:46Z</time>
      </trkpt>
      <trkpt lat="48.85064" lon="-0.35323">
        <ele>79</ele>
        <time>2023-06-12T20:34:55Z</time>
      </trkpt>
      <trkpt lat="48.8506" lon="-0.35349">
        <ele>78</ele>
        <time>2023-06-12T20:35:00Z</time>
      </trkpt>
      <trkpt lat="48.85039" lon="-0.3544">
        <ele>77</ele>
        <time>2023-06-12T20:35:14Z</time>
      </trkpt>
      <trkpt lat="48.85031" lon="-0.35457">
        <ele>76</ele>
        <time>2023-06-12T20:35:18Z</time>
      </trkpt>
      <trkpt lat="48.85013" lon="-0.3551">
        <ele>74</ele>
        <time>2023-06-12T20:35:27Z</time>
      </trkpt>
      <trkpt lat="48.85004" lon="-0.35545">
        <ele>73</ele>
        <time>2023-06-12T20:35:33Z</time>
      </trkpt>
      <trkpt lat="48.84996" lon="-0.3559">
        <ele>72</ele>
        <time>2023-06-12T20:35:40Z</time>
      </trkpt>
      <trkpt lat="48.84998" lon="-0.35621">
        <ele>71</ele>
        <time>2023-06-12T20:35:45Z</time>
      </trkpt>
      <trkpt lat="48.85002" lon="-0.35637">
        <ele>71</ele>
        <time>2023-06-12T20:35:47Z</time>
      </trkpt>
      <trkpt lat="48.85033" lon="-0.35721">
        <ele>74</ele>
        <time>2023-06-12T20:36:02Z</time>
      </trkpt>
      <trkpt lat="48.85047" lon="-0.35749">
        <ele>74</ele>
        <time>2023-06-12T20:36:07Z</time>
      </trkpt>
      <trkpt lat="48.85129" lon="-0.3588">
        <ele>74</ele>
        <time>2023-06-12T20:36:35Z</time>
      </trkpt>
      <trkpt lat="48.85185" lon="-0.35953">
        <ele>74</ele>
        <time>2023-06-12T20:36:52Z</time>
      </trkpt>
      <trkpt lat="48.85229" lon="-0.36029">
        <ele>73</ele>
        <time>2023-06-12T20:37:08Z</time>
      </trkpt>
      <trkpt lat="48.85252" lon="-0.36081">
        <ele>70</ele>
        <time>2023-06-12T20:37:18Z</time>
      </trkpt>
      <trkpt lat="48.85269" lon="-0.3613">
        <ele>70</ele>
        <time>2023-06-12T20:37:26Z</time>
      </trkpt>
      <trkpt lat="48.85298" lon="-0.36222">
        <ele>71</ele>
        <time>2023-06-12T20:37:42Z</time>
      </trkpt>
      <trkpt lat="48.85302" lon="-0.36243">
        <ele>71</ele>
        <time>2023-06-12T20:37:45Z</time>
      </trkpt>
      <trkpt lat="48.85302" lon="-0.36264">
        <ele>71</ele>
        <time>2023-06-12T20:37:48Z</time>
      </trkpt>
      <trkpt lat="48.85294" lon="-0.36291">
        <ele>70</ele>
        <time>2023-06-12T20:37:53Z</time>
      </trkpt>
      <trkpt lat="48.85289" lon="-0.3632">
        <ele>70</ele>
        <time>2023-06-12T20:37:57Z</time>
      </trkpt>
      <trkpt lat="48.85273" lon="-0.36352">
        <ele>68</ele>
        <time>2023-06-12T20:38:04Z</time>
      </trkpt>
      <trkpt lat="48.85246" lon="-0.36394">
        <ele>68</ele>
        <time>2023-06-12T20:38:13Z</time>
      </trkpt>
      <trkpt lat="48.85291" lon="-0.36372">
        <ele>72</ele>
        <time>2023-06-12T20:38:24Z</time>
      </trkpt>
      <trkpt lat="48.85313" lon="-0.36343">
        <ele>74</ele>
        <time>2023-06-12T20:38:31Z</time>
      </trkpt>
      <trkpt lat="48.85324" lon="-0.36319">
        <ele>76</ele>
        <time>2023-06-12T20:38:35Z</time>
      </trkpt>
      <trkpt lat="48.85396" lon="-0.3626">
        <ele>88</ele>
        <time>2023-06-12T20:38:54Z</time>
      </trkpt>
      <trkpt lat="48.85412" lon="-0.3624">
        <ele>91</ele>
        <time>2023-06-12T20:38:59Z</time>
      </trkpt>
      <trkpt lat="48.85423" lon="-0.36221">
        <ele>92</ele>
        <time>2023-06-12T20:39:03Z</time>
      </trkpt>
      <trkpt lat="48.85436" lon="-0.36191">
        <ele>92</ele>
        <time>2023-06-12T20:39:08Z</time>
      </trkpt>
      <trkpt lat="48.85452" lon="-0.36221">
        <ele>93</ele>
        <time>2023-06-12T20:39:14Z</time>
      </trkpt>
      <trkpt lat="48.85477" lon="-0.3632">
        <ele>88</ele>
        <time>2023-06-12T20:39:31Z</time>
      </trkpt>
      <trkpt lat="48.85482" lon="-0.36383">
        <ele>86</ele>
        <time>2023-06-12T20:39:40Z</time>
      </trkpt>
      <trkpt lat="48.85482" lon="-0.36426">
        <ele>86</ele>
        <time>2023-06-12T20:39:47Z</time>
      </trkpt>
      <trkpt lat="48.85476" lon="-0.36505">
        <ele>91</ele>
        <time>2023-06-12T20:39:59Z</time>
      </trkpt>
      <trkpt lat="48.85467" lon="-0.36514">
        <ele>91</ele>
        <time>2023-06-12T20:40:02Z</time>
      </trkpt>
      <trkpt lat="48.85458" lon="-0.36558">
        <ele>92</ele>
        <time>2023-06-12T20:40:09Z</time>
      </trkpt>
      <trkpt lat="48.85419" lon="-0.36659">
        <ele>93</ele>
        <time>2023-06-12T20:40:27Z</time>
      </trkpt>
      <trkpt lat="48.8538" lon="-0.36723">
        <ele>94</ele>
        <time>2023-06-12T20:40:40Z</time>
      </trkpt>
      <trkpt lat="48.85328" lon="-0.3677">
        <ele>93</ele>
        <time>2023-06-12T20:40:54Z</time>
      </trkpt>
      <trkpt lat="48.85291" lon="-0.36807">
        <ele>92</ele>
        <time>2023-06-12T20:41:05Z</time>
      </trkpt>
      <trkpt lat="48.85281" lon="-0.36814">
        <ele>92</ele>
        <time>2023-06-12T20:41:07Z</time>
      </trkpt>
      <trkpt lat="48.85253" lon="-0.36853">
        <ele>90</ele>
        <time>2023-06-12T20:41:16Z</time>
      </trkpt>
      <trkpt lat="48.8521" lon="-0.36858">
        <ele>86</ele>
        <time>2023-06-12T20:41:26Z</time>
      </trkpt>
      <trkpt lat="48.85202" lon="-0.36804">
        <ele>84</ele>
        <time>2023-06-12T20:41:35Z</time>
      </trkpt>
      <trkpt lat="48.85202" lon="-0.3677">
        <ele>84</ele>
        <time>2023-06-12T20:41:40Z</time>
      </trkpt>
      <trkpt lat="48.85196" lon="-0.36735">
        <ele>82</ele>
        <time>2023-06-12T20:41:45Z</time>
      </trkpt>
      <trkpt lat="48.85181" lon="-0.36727">
        <ele>80</ele>
        <time>2023-06-12T20:41:49Z</time>
      </trkpt>
      <trkpt lat="48.85137" lon="-0.36741">
        <ele>77</ele>
        <time>2023-06-12T20:42:00Z</time>
      </trkpt>
      <trkpt lat="48.85097" lon="-0.36758">
        <ele>73</ele>
        <time>2023-06-12T20:42:09Z</time>
      </trkpt>
      <trkpt lat="48.85072" lon="-0.36772">
        <ele>72</ele>
        <time>2023-06-12T20:42:16Z</time>
      </trkpt>
      <trkpt lat="48.85042" lon="-0.36806">
        <ele>72</ele>
        <time>2023-06-12T20:42:24Z</time>
      </trkpt>
      <trkpt lat="48.85029" lon="-0.36814">
        <ele>71</ele>
        <time>2023-06-12T20:42:28Z</time>
      </trkpt>
      <trkpt lat="48.85022" lon="-0.36809">
        <ele>71</ele>
        <time>2023-06-12T20:42:29Z</time>
      </trkpt>
      <trkpt lat="48.84981" lon="-0.367">
        <ele>70</ele>
        <time>2023-06-12T20:42:49Z</time>
      </trkpt>
      <trkpt lat="48.8495" lon="-0.36674">
        <ele>69</ele>
        <time>2023-06-12T20:42:57Z</time>
      </trkpt>
      <trkpt lat="48.84939" lon="-0.3666">
        <ele>68</ele>
        <time>2023-06-12T20:43:00Z</time>
      </trkpt>
      <trkpt lat="48.84914" lon="-0.36625">
        <ele>65</ele>
        <time>2023-06-12T20:43:08Z</time>
      </trkpt>
      <trkpt lat="48.84905" lon="-0.36602">
        <ele>62</ele>
        <time>2023-06-12T20:43:12Z</time>
      </trkpt>
      <trkpt lat="48.84905" lon="-0.36566">
        <ele>60</ele>
        <time>2023-06-12T20:43:18Z</time>
      </trkpt>
      <trkpt lat="48.84917" lon="-0.36517">
        <ele>59</ele>
        <time>2023-06-12T20:43:26Z</time>
      </trkpt>
      <trkpt lat="48.84952" lon="-0.36394">
        <ele>60</ele>
        <time>2023-06-12T20:43:46Z</time>
      </trkpt>
      <trkpt lat="48.84998" lon="-0.3625">
        <ele>60</ele>
        <time>2023-06-12T20:44:11Z</time>
      </trkpt>
      <trkpt lat="48.85009" lon="-0.36235">
        <ele>62</ele>
        <time>2023-06-12T20:44:15Z</time>
      </trkpt>
      <trkpt lat="48.8501" lon="-0.36205">
        <ele>66</ele>
        <time>2023-06-12T20:44:19Z</time>
      </trkpt>
      <trkpt lat="48.84985" lon="-0.36189">
        <ele>67</ele>
        <time>2023-06-12T20:44:25Z</time>
      </trkpt>
      <trkpt lat="48.84974" lon="-0.36177">
        <ele>68</ele>
        <time>2023-06-12T20:44:29Z</time>
      </trkpt>
      <trkpt lat="48.84943" lon="-0.36161">
        <ele>68</ele>
        <time>2023-06-12T20:44:36Z</time>
      </trkpt>
      <trkpt lat="48.84907" lon="-0.36088">
        <ele>73</ele>
        <time>2023-06-12T20:44:50Z</time>
      </trkpt>
      <trkpt lat="48.84899" lon="-0.36065">
        <ele>74</ele>
        <time>2023-06-12T20:44:54Z</time>
      </trkpt>
      <trkpt lat="48.84901" lon="-0.36052">
        <ele>75</ele>
        <time>2023-06-12T20:44:56Z</time>
      </trkpt>
      <trkpt lat="48.84876" lon="-0.36011">
        <ele>77</ele>
        <time>2023-06-12T20:45:05Z</time>
      </trkpt>
      <trkpt lat="48.84852" lon="-0.35944">
        <ele>82</ele>
        <time>2023-06-12T20:45:17Z</time>
      </trkpt>
      <trkpt lat="48.84831" lon="-0.35899">
        <ele>86</ele>
        <time>2023-06-12T20:45:25Z</time>
      </trkpt>
      <trkpt lat="48.84817" lon="-0.35877">
        <ele>85</ele>
        <time>2023-06-12T20:45:30Z</time>
      </trkpt>
      <trkpt lat="48.84669" lon="-0.35725">
        <ele>98</ele>
        <time>2023-06-12T20:46:12Z</time>
      </trkpt>
      <trkpt lat="48.84606" lon="-0.35655">
        <ele>109</ele>
        <time>2023-06-12T20:46:30Z</time>
      </trkpt>
      <trkpt lat="48.84569" lon="-0.35643">
        <ele>112</ele>
        <time>2023-06-12T20:46:39Z</time>
      </trkpt>
      <trkpt lat="48.84546" lon="-0.35641">
        <ele>115</ele>
        <time>2023-06-12T20:46:44Z</time>
      </trkpt>
      <trkpt lat="48.84509" lon="-0.35646">
        <ele>118</ele>
        <time>2023-06-12T20:46:53Z</time>
      </trkpt>
      <trkpt lat="48.84496" lon="-0.35642">
        <ele>120</ele>
        <time>2023-06-12T20:46:56Z</time>
      </trkpt>
      <trkpt lat="48.84429" lon="-0.35599">
        <ele>134</ele>
        <time>2023-06-12T20:47:13Z</time>
      </trkpt>
      <trkpt lat="48.84358" lon="-0.35572">
        <ele>139</ele>
        <time>2023-06-12T20:47:30Z</time>
      </trkpt>
      <trkpt lat="48.84329" lon="-0.35552">
        <ele>139</ele>
        <time>2023-06-12T20:47:37Z</time>
      </trkpt>
      <trkpt lat="48.84275" lon="-0.35496">
        <ele>140</ele>
        <time>2023-06-12T20:47:53Z</time>
      </trkpt>
      <trkpt lat="48.84184" lon="-0.35363">
        <ele>140</ele>
        <time>2023-06-12T20:48:22Z</time>
      </trkpt>
      <trkpt lat="48.84172" lon="-0.35354">
        <ele>140</ele>
        <time>2023-06-12T20:48:25Z</time>
      </trkpt>
      <trkpt lat="48.84162" lon="-0.35351">
        <ele>141</ele>
        <time>2023-06-12T20:48:28Z</time>
      </trkpt>
      <trkpt lat="48.84155" lon="-0.35329">
        <ele>141</ele>
        <time>2023-06-12T20:48:31Z</time>
      </trkpt>
      <trkpt lat="48.84179" lon="-0.353">
        <ele>139</ele>
        <time>2023-06-12T20:48:38Z</time>
      </trkpt>
      <trkpt lat="48.84193" lon="-0.3529">
        <ele>139</ele>
        <time>2023-06-12T20:48:42Z</time>
      </trkpt>
      <trkpt lat="48.84196" lon="-0.35271">
        <ele>138</ele>
        <time>2023-06-12T20:48:45Z</time>
      </trkpt>
      <trkpt lat="48.84239" lon="-0.35167">
        <ele>133</ele>
        <time>2023-06-12T20:49:04Z</time>
      </trkpt>
      <trkpt lat="48.84297" lon="-0.34971">
        <ele>127</ele>
        <time>2023-06-12T20:49:37Z</time>
      </trkpt>
      <trkpt lat="48.84309" lon="-0.34891">
        <ele>124</ele>
        <time>2023-06-12T20:49:50Z</time>
      </trkpt>
      <trkpt lat="48.8435" lon="-0.34829">
        <ele>122</ele>
        <time>2023-06-12T20:50:03Z</time>
      </trkpt>
      <trkpt lat="48.84382" lon="-0.34804">
        <ele>119</ele>
        <time>2023-06-12T20:50:12Z</time>
      </trkpt>
      <trkpt lat="48.84399" lon="-0.34765">
        <ele>119</ele>
        <time>2023-06-12T20:50:19Z</time>
      </trkpt>
      <trkpt lat="48.84357" lon="-0.3457">
        <ele>124</ele>
        <time>2023-06-12T20:50:50Z</time>
      </trkpt>
      <trkpt lat="48.84321" lon="-0.34334">
        <ele>124</ele>
        <time>2023-06-12T20:51:27Z</time>
      </trkpt>
      <trkpt lat="48.84302" lon="-0.34239">
        <ele>124</ele>
        <time>2023-06-12T20:51:43Z</time>
      </trkpt>
      <trkpt lat="48.84284" lon="-0.34224">
        <ele>124</ele>
        <time>2023-06-12T20:51:48Z</time>
      </trkpt>
      <trkpt lat="48.84264" lon="-0.34164">
        <ele>122</ele>
        <time>2023-06-12T20:51:58Z</time>
      </trkpt>
      <trkpt lat="48.84275" lon="-0.34089">
        <ele>116</ele>
        <time>2023-06-12T20:52:10Z</time>
      </trkpt>
      <trkpt lat="48.84289" lon="-0.34062">
        <ele>114</ele>
        <time>2023-06-12T20:52:15Z</time>
      </trkpt>
      <trkpt lat="48.84318" lon="-0.34025">
        <ele>110</ele>
        <time>2023-06-12T20:52:24Z</time>
      </trkpt>
      <trkpt lat="48.84399" lon="-0.33957">
        <ele>104</ele>
        <time>2023-06-12T20:52:45Z</time>
      </trkpt>
      <trkpt lat="48.84544" lon="-0.33827">
        <ele>88</ele>
        <time>2023-06-12T20:53:25Z</time>
      </trkpt>
      <trkpt lat="48.84525" lon="-0.33787">
        <ele>90</ele>
        <time>2023-06-12T20:53:32Z</time>
      </trkpt>
      <trkpt lat="48.84543" lon="-0.33755">
        <ele>89</ele>
        <time>2023-06-12T20:53:39Z</time>
      </trkpt>
      <trkpt lat="48.8455" lon="-0.33731">
        <ele>88</ele>
        <time>2023-06-12T20:53:43Z</time>
      </trkpt>
      <trkpt lat="48.84548" lon="-0.33706">
        <ele>88</ele>
        <time>2023-06-12T20:53:47Z</time>
      </trkpt>
      <trkpt lat="48.84543" lon="-0.33682">
        <ele>88</ele>
        <time>2023-06-12T20:53:51Z</time>
      </trkpt>
      <trkpt lat="48.84529" lon="-0.3365">
        <ele>90</ele>
        <time>2023-06-12T20:53:56Z</time>
      </trkpt>
      <trkpt lat="48.84513" lon="-0.33632">
        <ele>91</ele>
        <time>2023-06-12T20:54:01Z</time>
      </trkpt>
      <trkpt lat="48.84428" lon="-0.33604">
        <ele>101</ele>
        <time>2023-06-12T20:54:21Z</time>
      </trkpt>
      <trkpt lat="48.84343" lon="-0.33538">
        <ele>108</ele>
        <time>2023-06-12T20:54:44Z</time>
      </trkpt>
      <trkpt lat="48.8432" lon="-0.33528">
        <ele>110</ele>
        <time>2023-06-12T20:54:49Z</time>
      </trkpt>
      <trkpt lat="48.84301" lon="-0.33544">
        <ele>113</ele>
        <time>2023-06-12T20:54:54Z</time>
      </trkpt>
      <trkpt lat="48.84275" lon="-0.33554">
        <ele>115</ele>
        <time>2023-06-12T20:55:01Z</time>
      </trkpt>
      <trkpt lat="48.84249" lon="-0.33552">
        <ele>117</ele>
        <time>2023-06-12T20:55:07Z</time>
      </trkpt>
      <trkpt lat="48.84179" lon="-0.3356">
        <ele>120</ele>
        <time>2023-06-12T20:55:23Z</time>
      </trkpt>
      <trkpt lat="48.8411" lon="-0.33543">
        <ele>121</ele>
        <time>2023-06-12T20:55:39Z</time>
      </trkpt>
      <trkpt lat="48.84062" lon="-0.33545">
        <ele>121</ele>
        <time>2023-06-12T20:55:51Z</time>
      </trkpt>
      <trkpt lat="48.84025" lon="-0.33555">
        <ele>120</ele>
        <time>2023-06-12T20:55:59Z</time>
      </trkpt>
      <trkpt lat="48.83983" lon="-0.33587">
        <ele>122</ele>
        <time>2023-06-12T20:56:10Z</time>
      </trkpt>
      <trkpt lat="48.8397" lon="-0.33581">
        <ele>122</ele>
        <time>2023-06-12T20:56:14Z</time>
      </trkpt>
      <trkpt lat="48.83959" lon="-0.33566">
        <ele>122</ele>
        <time>2023-06-12T20:56:17Z</time>
      </trkpt>
      <trkpt lat="48.83942" lon="-0.33507">
        <ele>121</ele>
        <time>2023-06-12T20:56:27Z</time>
      </trkpt>
      <trkpt lat="48.83907" lon="-0.33426">
        <ele>124</ele>
        <time>2023-06-12T20:56:42Z</time>
      </trkpt>
      <trkpt lat="48.83872" lon="-0.33357">
        <ele>125</ele>
        <time>2023-06-12T20:56:55Z</time>
      </trkpt>
      <trkpt lat="48.83859" lon="-0.33344">
        <ele>126</ele>
        <time>2023-06-12T20:56:59Z</time>
      </trkpt>
      <trkpt lat="48.83838" lon="-0.33316">
        <ele>126</ele>
        <time>2023-06-12T20:57:05Z</time>
      </trkpt>
      <trkpt lat="48.83816" lon="-0.33304">
        <ele>126</ele>
        <time>2023-06-12T20:57:11Z</time>
      </trkpt>
      <trkpt lat="48.83796" lon="-0.33301">
        <ele>126</ele>
        <time>2023-06-12T20:57:16Z</time>
      </trkpt>
      <trkpt lat="48.83727" lon="-0.33306">
        <ele>126</ele>
        <time>2023-06-12T20:57:32Z</time>
      </trkpt>
      <trkpt lat="48.83644" lon="-0.33297">
        <ele>126</ele>
        <time>2023-06-12T20:57:51Z</time>
      </trkpt>
      <trkpt lat="48.83632" lon="-0.33307">
        <ele>128</ele>
        <time>2023-06-12T20:57:54Z</time>
      </trkpt>
      <trkpt lat="48.83608" lon="-0.33368">
        <ele>136</ele>
        <time>2023-06-12T20:58:05Z</time>
      </trkpt>
      <trkpt lat="48.83534" lon="-0.33474">
        <ele>148</ele>
        <time>2023-06-12T20:58:29Z</time>
      </trkpt>
      <trkpt lat="48.83503" lon="-0.33542">
        <ele>152</ele>
        <time>2023-06-12T20:58:42Z</time>
      </trkpt>
      <trkpt lat="48.83488" lon="-0.33603">
        <ele>154</ele>
        <time>2023-06-12T20:58:52Z</time>
      </trkpt>
      <trkpt lat="48.83476" lon="-0.33667">
        <ele>157</ele>
        <time>2023-06-12T20:59:02Z</time>
      </trkpt>
      <trkpt lat="48.83468" lon="-0.33748">
        <ele>161</ele>
        <time>2023-06-12T20:59:15Z</time>
      </trkpt>
      <trkpt lat="48.83467" lon="-0.3384">
        <ele>166</ele>
        <time>2023-06-12T20:59:29Z</time>
      </trkpt>
      <trkpt lat="48.83454" lon="-0.33871">
        <ele>168</ele>
        <time>2023-06-12T20:59:34Z</time>
      </trkpt>
      <trkpt lat="48.83431" lon="-0.33899">
        <ele>169</ele>
        <time>2023-06-12T20:59:41Z</time>
      </trkpt>
      <trkpt lat="48.83408" lon="-0.3392">
        <ele>170</ele>
        <time>2023-06-12T20:59:47Z</time>
      </trkpt>
      <trkpt lat="48.83398" lon="-0.33939">
        <ele>171</ele>
        <time>2023-06-12T20:59:51Z</time>
      </trkpt>
      <trkpt lat="48.83384" lon="-0.33919">
        <ele>171</ele>
        <time>2023-06-12T20:59:56Z</time>
      </trkpt>
      <trkpt lat="48.83379" lon="-0.339">
        <ele>171</ele>
        <time>2023-06-12T20:59:59Z</time>
      </trkpt>
      <trkpt lat="48.83366" lon="-0.33874">
        <ele>171</ele>
        <time>2023-06-12T21:00:04Z</time>
      </trkpt>
      <trkpt lat="48.83342" lon="-0.33808">
        <ele>171</ele>
        <time>2023-06-12T21:00:15Z</time>
      </trkpt>
      <trkpt lat="48.8332" lon="-0.3377">
        <ele>170</ele>
        <time>2023-06-12T21:00:23Z</time>
      </trkpt>
      <trkpt lat="48.83292" lon="-0.33707">
        <ele>166</ele>
        <time>2023-06-12T21:00:35Z</time>
      </trkpt>
      <trkpt lat="48.83276" lon="-0.33688">
        <ele>165</ele>
        <time>2023-06-12T21:00:40Z</time>
      </trkpt>
      <trkpt lat="48.83227" lon="-0.33656">
        <ele>166</ele>
        <time>2023-06-12T21:00:52Z</time>
      </trkpt>
      <trkpt lat="48.83218" lon="-0.33637">
        <ele>165</ele>
        <time>2023-06-12T21:00:56Z</time>
      </trkpt>
      <trkpt lat="48.83207" lon="-0.33604">
        <ele>164</ele>
        <time>2023-06-12T21:01:01Z</time>
      </trkpt>
      <trkpt lat="48.83191" lon="-0.33532">
        <ele>162</ele>
        <time>2023-06-12T21:01:13Z</time>
      </trkpt>
      <trkpt lat="48.83174" lon="-0.3347">
        <ele>163</ele>
        <time>2023-06-12T21:01:23Z</time>
      </trkpt>
      <trkpt lat="48.8316" lon="-0.33407">
        <ele>163</ele>
        <time>2023-06-12T21:01:34Z</time>
      </trkpt>
      <trkpt lat="48.83136" lon="-0.33277">
        <ele>161</ele>
        <time>2023-06-12T21:01:54Z</time>
      </trkpt>
      <trkpt lat="48.83122" lon="-0.33219">
        <ele>160</ele>
        <time>2023-06-12T21:02:04Z</time>
      </trkpt>
      <trkpt lat="48.83084" lon="-0.33116">
        <ele>160</ele>
        <time>2023-06-12T21:02:22Z</time>
      </trkpt>
      <trkpt lat="48.83053" lon="-0.32991">
        <ele>162</ele>
        <time>2023-06-12T21:02:43Z</time>
      </trkpt>
      <trkpt lat="48.83035" lon="-0.32931">
        <ele>164</ele>
        <time>2023-06-12T21:02:53Z</time>
      </trkpt>
      <trkpt lat="48.82997" lon="-0.32841">
        <ele>168</ele>
        <time>2023-06-12T21:03:09Z</time>
      </trkpt>
      <trkpt lat="48.82975" lon="-0.32795">
        <ele>168</ele>
        <time>2023-06-12T21:03:18Z</time>
      </trkpt>
      <trkpt lat="48.82927" lon="-0.32731">
        <ele>170</ele>
        <time>2023-06-12T21:03:33Z</time>
      </trkpt>
      <trkpt lat="48.82908" lon="-0.32702">
        <ele>170</ele>
        <time>2023-06-12T21:03:39Z</time>
      </trkpt>
      <trkpt lat="48.82882" lon="-0.3265">
        <ele>169</ele>
        <time>2023-06-12T21:03:49Z</time>
      </trkpt>
      <trkpt lat="48.82866" lon="-0.32598">
        <ele>168</ele>
        <time>2023-06-12T21:03:58Z</time>
      </trkpt>
      <trkpt lat="48.82839" lon="-0.32468">
        <ele>165</ele>
        <time>2023-06-12T21:04:19Z</time>
      </trkpt>
      <trkpt lat="48.82823" lon="-0.32427">
        <ele>165</ele>
        <time>2023-06-12T21:04:26Z</time>
      </trkpt>
      <trkpt lat="48.82775" lon="-0.32238">
        <ele>168</ele>
        <time>2023-06-12T21:04:57Z</time>
      </trkpt>
      <trkpt lat="48.8275" lon="-0.32188">
        <ele>170</ele>
        <time>2023-06-12T21:05:07Z</time>
      </trkpt>
      <trkpt lat="48.82734" lon="-0.32179">
        <ele>170</ele>
        <time>2023-06-12T21:05:11Z</time>
      </trkpt>
      <trkpt lat="48.82754" lon="-0.32119">
        <ele>170</ele>
        <time>2023-06-12T21:05:21Z</time>
      </trkpt>
      <trkpt lat="48.82751" lon="-0.32095">
        <ele>171</ele>
        <time>2023-06-12T21:05:25Z</time>
      </trkpt>
      <trkpt lat="48.82753" lon="-0.32021">
        <ele>172</ele>
        <time>2023-06-12T21:05:36Z</time>
      </trkpt>
      <trkpt lat="48.82741" lon="-0.31852">
        <ele>173</ele>
        <time>2023-06-12T21:06:03Z</time>
      </trkpt>
      <trkpt lat="48.82732" lon="-0.31604">
        <ele>174</ele>
        <time>2023-06-12T21:06:41Z</time>
      </trkpt>
      <trkpt lat="48.82725" lon="-0.31227">
        <ele>178</ele>
        <time>2023-06-12T21:07:39Z</time>
      </trkpt>
      <trkpt lat="48.82752" lon="-0.31233">
        <ele>176</ele>
        <time>2023-06-12T21:07:45Z</time>
      </trkpt>
      <trkpt lat="48.82883" lon="-0.31236">
        <ele>166</ele>
        <time>2023-06-12T21:08:16Z</time>
      </trkpt>
      <trkpt lat="48.82924" lon="-0.31261">
        <ele>163</ele>
        <time>2023-06-12T21:08:26Z</time>
      </trkpt>
      <trkpt lat="48.82958" lon="-0.31278">
        <ele>162</ele>
        <time>2023-06-12T21:08:34Z</time>
      </trkpt>
      <trkpt lat="48.82995" lon="-0.31291">
        <ele>160</ele>
        <time>2023-06-12T21:08:43Z</time>
      </trkpt>
      <trkpt lat="48.83021" lon="-0.31221">
        <ele>160</ele>
        <time>2023-06-12T21:08:56Z</time>
      </trkpt>
      <trkpt lat="48.83027" lon="-0.31173">
        <ele>160</ele>
        <time>2023-06-12T21:09:03Z</time>
      </trkpt>
      <trkpt lat="48.83051" lon="-0.31082">
        <ele>160</ele>
        <time>2023-06-12T21:09:18Z</time>
      </trkpt>
      <trkpt lat="48.83102" lon="-0.30932">
        <ele>158</ele>
        <time>2023-06-12T21:09:44Z</time>
      </trkpt>
      <trkpt lat="48.83119" lon="-0.30859">
        <ele>156</ele>
        <time>2023-06-12T21:09:56Z</time>
      </trkpt>
      <trkpt lat="48.83148" lon="-0.30779">
        <ele>154</ele>
        <time>2023-06-12T21:10:10Z</time>
      </trkpt>
      <trkpt lat="48.83184" lon="-0.30631">
        <ele>149</ele>
        <time>2023-06-12T21:10:34Z</time>
      </trkpt>
      <trkpt lat="48.83212" lon="-0.30473">
        <ele>143</ele>
        <time>2023-06-12T21:11:00Z</time>
      </trkpt>
      <trkpt lat="48.83229" lon="-0.30417">
        <ele>141</ele>
        <time>2023-06-12T21:11:09Z</time>
      </trkpt>
      <trkpt lat="48.83237" lon="-0.30366">
        <ele>142</ele>
        <time>2023-06-12T21:11:17Z</time>
      </trkpt>
      <trkpt lat="48.83265" lon="-0.30327">
        <ele>142</ele>
        <time>2023-06-12T21:11:26Z</time>
      </trkpt>
      <trkpt lat="48.83292" lon="-0.30301">
        <ele>143</ele>
        <time>2023-06-12T21:11:33Z</time>
      </trkpt>
      <trkpt lat="48.83321" lon="-0.3024">
        <ele>144</ele>
        <time>2023-06-12T21:11:45Z</time>
      </trkpt>
      <trkpt lat="48.83327" lon="-0.3024">
        <ele>143</ele>
        <time>2023-06-12T21:11:46Z</time>
      </trkpt>
      <trkpt lat="48.83336" lon="-0.30272">
        <ele>144</ele>
        <time>2023-06-12T21:11:52Z</time>
      </trkpt>
      <trkpt lat="48.83341" lon="-0.30278">
        <ele>144</ele>
        <time>2023-06-12T21:11:53Z</time>
      </trkpt>
      <trkpt lat="48.83349" lon="-0.30275">
        <ele>145</ele>
        <time>2023-06-12T21:11:55Z</time>
      </trkpt>
      <trkpt lat="48.83365" lon="-0.30261">
        <ele>146</ele>
        <time>2023-06-12T21:11:59Z</time>
      </trkpt>
      <trkpt lat="48.83387" lon="-0.30224">
        <ele>148</ele>
        <time>2023-06-12T21:12:07Z</time>
      </trkpt>
      <trkpt lat="48.83395" lon="-0.30197">
        <ele>149</ele>
        <time>2023-06-12T21:12:12Z</time>
      </trkpt>
      <trkpt lat="48.83385" lon="-0.30285">
        <ele>148</ele>
        <time>2023-06-12T21:12:25Z</time>
      </trkpt>
      <trkpt lat="48.83393" lon="-0.30293">
        <ele>149</ele>
        <time>2023-06-12T21:12:28Z</time>
      </trkpt>
      <trkpt lat="48.83406" lon="-0.30299">
        <ele>150</ele>
        <time>2023-06-12T21:12:31Z</time>
      </trkpt>
      <trkpt lat="48.83423" lon="-0.30296">
        <ele>151</ele>
        <time>2023-06-12T21:12:35Z</time>
      </trkpt>
      <trkpt lat="48.83443" lon="-0.3028">
        <ele>153</ele>
        <time>2023-06-12T21:12:40Z</time>
      </trkpt>
      <trkpt lat="48.8347" lon="-0.30282">
        <ele>156</ele>
        <time>2023-06-12T21:12:46Z</time>
      </trkpt>
      <trkpt lat="48.8349" lon="-0.30297">
        <ele>158</ele>
        <time>2023-06-12T21:12:52Z</time>
      </trkpt>
      <trkpt lat="48.83506" lon="-0.30304">
        <ele>160</ele>
        <time>2023-06-12T21:12:55Z</time>
      </trkpt>
      <trkpt lat="48.83559" lon="-0.30287">
        <ele>168</ele>
        <time>2023-06-12T21:13:08Z</time>
      </trkpt>
      <trkpt lat="48.83599" lon="-0.3027">
        <ele>173</ele>
        <time>2023-06-12T21:13:18Z</time>
      </trkpt>
      <trkpt lat="48.8364" lon="-0.30242">
        <ele>177</ele>
        <time>2023-06-12T21:13:28Z</time>
      </trkpt>
      <trkpt lat="48.83705" lon="-0.30231">
        <ele>181</ele>
        <time>2023-06-12T21:13:44Z</time>
      </trkpt>
      <trkpt lat="48.8376" lon="-0.30233">
        <ele>183</ele>
        <time>2023-06-12T21:13:56Z</time>
      </trkpt>
      <trkpt lat="48.83799" lon="-0.30228">
        <ele>184</ele>
        <time>2023-06-12T21:14:06Z</time>
      </trkpt>
      <trkpt lat="48.83809" lon="-0.30281">
        <ele>183</ele>
        <time>2023-06-12T21:14:14Z</time>
      </trkpt>
      <trkpt lat="48.83844" lon="-0.30386">
        <ele>182</ele>
        <time>2023-06-12T21:14:32Z</time>
      </trkpt>
      <trkpt lat="48.83868" lon="-0.30497">
        <ele>177</ele>
        <time>2023-06-12T21:14:50Z</time>
      </trkpt>
      <trkpt lat="48.83869" lon="-0.30544">
        <ele>175</ele>
        <time>2023-06-12T21:14:57Z</time>
      </trkpt>
      <trkpt lat="48.83859" lon="-0.30714">
        <ele>170</ele>
        <time>2023-06-12T21:15:24Z</time>
      </trkpt>
      <trkpt lat="48.83829" lon="-0.30891">
        <ele>162</ele>
        <time>2023-06-12T21:15:52Z</time>
      </trkpt>
      <trkpt lat="48.83832" lon="-0.30962">
        <ele>157</ele>
        <time>2023-06-12T21:16:03Z</time>
      </trkpt>
      <trkpt lat="48.83845" lon="-0.31044">
        <ele>150</ele>
        <time>2023-06-12T21:16:16Z</time>
      </trkpt>
      <trkpt lat="48.83905" lon="-0.31256">
        <ele>137</ele>
        <time>2023-06-12T21:16:51Z</time>
      </trkpt>
      <trkpt lat="48.83925" lon="-0.31282">
        <ele>136</ele>
        <time>2023-06-12T21:16:57Z</time>
      </trkpt>
      <trkpt lat="48.83943" lon="-0.31296">
        <ele>135</ele>
        <time>2023-06-12T21:17:02Z</time>
      </trkpt>
      <trkpt lat="48.84036" lon="-0.31352">
        <ele>128</ele>
        <time>2023-06-12T21:17:25Z</time>
      </trkpt>
      <trkpt lat="48.84057" lon="-0.31368">
        <ele>126</ele>
        <time>2023-06-12T21:17:31Z</time>
      </trkpt>
      <trkpt lat="48.84091" lon="-0.31388">
        <ele>122</ele>
        <time>2023-06-12T21:17:39Z</time>
      </trkpt>
      <trkpt lat="48.84206" lon="-0.31302">
        <ele>118</ele>
        <time>2023-06-12T21:18:09Z</time>
      </trkpt>
      <trkpt lat="48.84232" lon="-0.3129">
        <ele>117</ele>
        <time>2023-06-12T21:18:16Z</time>
      </trkpt>
      <trkpt lat="48.84257" lon="-0.31251">
        <ele>119</ele>
        <time>2023-06-12T21:18:24Z</time>
      </trkpt>
      <trkpt lat="48.84266" lon="-0.31244">
        <ele>118</ele>
        <time>2023-06-12T21:18:26Z</time>
      </trkpt>
      <trkpt lat="48.84273" lon="-0.31241">
        <ele>118</ele>
        <time>2023-06-12T21:18:28Z</time>
      </trkpt>
      <trkpt lat="48.84304" lon="-0.31244">
        <ele>117</ele>
        <time>2023-06-12T21:18:35Z</time>
      </trkpt>
      <trkpt lat="48.84324" lon="-0.31199">
        <ele>118</ele>
        <time>2023-06-12T21:18:44Z</time>
      </trkpt>
      <trkpt lat="48.84403" lon="-0.31117">
        <ele>118</ele>
        <time>2023-06-12T21:19:06Z</time>
      </trkpt>
      <trkpt lat="48.84452" lon="-0.31069">
        <ele>117</ele>
        <time>2023-06-12T21:19:20Z</time>
      </trkpt>
      <trkpt lat="48.84494" lon="-0.31033">
        <ele>116</ele>
        <time>2023-06-12T21:19:31Z</time>
      </trkpt>
      <trkpt lat="48.84559" lon="-0.30968">
        <ele>114</ele>
        <time>2023-06-12T21:19:49Z</time>
      </trkpt>
      <trkpt lat="48.84665" lon="-0.30788">
        <ele>116</ele>
        <time>2023-06-12T21:20:26Z</time>
      </trkpt>
      <trkpt lat="48.84753" lon="-0.30595">
        <ele>119</ele>
        <time>2023-06-12T21:21:02Z</time>
      </trkpt>
      <trkpt lat="48.8474" lon="-0.30585">
        <ele>121</ele>
        <time>2023-06-12T21:21:06Z</time>
      </trkpt>
      <trkpt lat="48.84759" lon="-0.30517">
        <ele>120</ele>
        <time>2023-06-12T21:21:17Z</time>
      </trkpt>
      <trkpt lat="48.84788" lon="-0.30492">
        <ele>117</ele>
        <time>2023-06-12T21:21:25Z</time>
      </trkpt>
      <trkpt lat="48.84801" lon="-0.30487">
        <ele>115</ele>
        <time>2023-06-12T21:21:28Z</time>
      </trkpt>
      <trkpt lat="48.84796" lon="-0.30414">
        <ele>117</ele>
        <time>2023-06-12T21:21:39Z</time>
      </trkpt>
      <trkpt lat="48.84761" lon="-0.30298">
        <ele>118</ele>
        <time>2023-06-12T21:21:59Z</time>
      </trkpt>
      <trkpt lat="48.84757" lon="-0.30256">
        <ele>117</ele>
        <time>2023-06-12T21:22:05Z</time>
      </trkpt>
      <trkpt lat="48.84767" lon="-0.30204">
        <ele>116</ele>
        <time>2023-06-12T21:22:14Z</time>
      </trkpt>
      <trkpt lat="48.84771" lon="-0.30169">
        <ele>115</ele>
        <time>2023-06-12T21:22:19Z</time>
      </trkpt>
      <trkpt lat="48.8478" lon="-0.30128">
        <ele>116</ele>
        <time>2023-06-12T21:22:26Z</time>
      </trkpt>
      <trkpt lat="48.84785" lon="-0.30055">
        <ele>118</ele>
        <time>2023-06-12T21:22:37Z</time>
      </trkpt>
      <trkpt lat="48.84788" lon="-0.30039">
        <ele>118</ele>
        <time>2023-06-12T21:22:40Z</time>
      </trkpt>
      <trkpt lat="48.84847" lon="-0.29849">
        <ele>121</ele>
        <time>2023-06-12T21:23:12Z</time>
      </trkpt>
      <trkpt lat="48.84914" lon="-0.29738">
        <ele>126</ele>
        <time>2023-06-12T21:23:35Z</time>
      </trkpt>
      <trkpt lat="48.84943" lon="-0.29681">
        <ele>127</ele>
        <time>2023-06-12T21:23:46Z</time>
      </trkpt>
      <trkpt lat="48.84975" lon="-0.29571">
        <ele>132</ele>
        <time>2023-06-12T21:24:05Z</time>
      </trkpt>
      <trkpt lat="48.85011" lon="-0.2954">
        <ele>130</ele>
        <time>2023-06-12T21:24:14Z</time>
      </trkpt>
      <trkpt lat="48.85041" lon="-0.29494">
        <ele>131</ele>
        <time>2023-06-12T21:24:24Z</time>
      </trkpt>
      <trkpt lat="48.85054" lon="-0.29444">
        <ele>131</ele>
        <time>2023-06-12T21:24:32Z</time>
      </trkpt>
      <trkpt lat="48.85061" lon="-0.29414">
        <ele>131</ele>
        <time>2023-06-12T21:24:37Z</time>
      </trkpt>
      <trkpt lat="48.85067" lon="-0.2937">
        <ele>130</ele>
        <time>2023-06-12T21:24:44Z</time>
      </trkpt>
      <trkpt lat="48.85057" lon="-0.2933">
        <ele>130</ele>
        <time>2023-06-12T21:24:51Z</time>
      </trkpt>
      <trkpt lat="48.85062" lon="-0.29275">
        <ele>129</ele>
        <time>2023-06-12T21:24:59Z</time>
      </trkpt>
      <trkpt lat="48.8506" lon="-0.29242">
        <ele>129</ele>
        <time>2023-06-12T21:25:04Z</time>
      </trkpt>
      <trkpt lat="48.85061" lon="-0.29178">
        <ele>130</ele>
        <time>2023-06-12T21:25:14Z</time>
      </trkpt>
      <trkpt lat="48.85065" lon="-0.29079">
        <ele>135</ele>
        <time>2023-06-12T21:25:29Z</time>
      </trkpt>
      <trkpt lat="48.85082" lon="-0.28872">
        <ele>138</ele>
        <time>2023-06-12T21:26:02Z</time>
      </trkpt>
      <trkpt lat="48.85088" lon="-0.28858">
        <ele>138</ele>
        <time>2023-06-12T21:26:04Z</time>
      </trkpt>
      <trkpt lat="48.85097" lon="-0.2885">
        <ele>137</ele>
        <time>2023-06-12T21:26:07Z</time>
      </trkpt>
      <trkpt lat="48.85122" lon="-0.28838">
        <ele>136</ele>
        <time>2023-06-12T21:26:13Z</time>
      </trkpt>
      <trkpt lat="48.8515" lon="-0.28816">
        <ele>134</ele>
        <time>2023-06-12T21:26:20Z</time>
      </trkpt>
      <trkpt lat="48.85155" lon="-0.28811">
        <ele>134</ele>
        <time>2023-06-12T21:26:21Z</time>
      </trkpt>
      <trkpt lat="48.85156" lon="-0.28803">
        <ele>134</ele>
        <time>2023-06-12T21:26:23Z</time>
      </trkpt>
      <trkpt lat="48.85175" lon="-0.28801">
        <ele>132</ele>
        <time>2023-06-12T21:26:27Z</time>
      </trkpt>
      <trkpt lat="48.85192" lon="-0.28803">
        <ele>130</ele>
        <time>2023-06-12T21:26:31Z</time>
      </trkpt>
      <trkpt lat="48.85203" lon="-0.28801">
        <ele>129</ele>
        <time>2023-06-12T21:26:34Z</time>
      </trkpt>
      <trkpt lat="48.85215" lon="-0.28809">
        <ele>127</ele>
        <time>2023-06-12T21:26:37Z</time>
      </trkpt>
      <trkpt lat="48.85227" lon="-0.28812">
        <ele>126</ele>
        <time>2023-06-12T21:26:40Z</time>
      </trkpt>
      <trkpt lat="48.85242" lon="-0.28803">
        <ele>125</ele>
        <time>2023-06-12T21:26:43Z</time>
      </trkpt>
      <trkpt lat="48.8527" lon="-0.28763">
        <ele>125</ele>
        <time>2023-06-12T21:26:52Z</time>
      </trkpt>
      <trkpt lat="48.85276" lon="-0.28748">
        <ele>125</ele>
        <time>2023-06-12T21:26:55Z</time>
      </trkpt>
      <trkpt lat="48.85283" lon="-0.28701">
        <ele>125</ele>
        <time>2023-06-12T21:27:02Z</time>
      </trkpt>
      <trkpt lat="48.85308" lon="-0.28688">
        <ele>126</ele>
        <time>2023-06-12T21:27:09Z</time>
      </trkpt>
      <trkpt lat="48.85314" lon="-0.28681">
        <ele>127</ele>
        <time>2023-06-12T21:27:10Z</time>
      </trkpt>
      <trkpt lat="48.85319" lon="-0.28657">
        <ele>127</ele>
        <time>2023-06-12T21:27:14Z</time>
      </trkpt>
      <trkpt lat="48.8532" lon="-0.2853">
        <ele>129</ele>
        <time>2023-06-12T21:27:34Z</time>
      </trkpt>
      <trkpt lat="48.85309" lon="-0.28434">
        <ele>128</ele>
        <time>2023-06-12T21:27:49Z</time>
      </trkpt>
      <trkpt lat="48.85309" lon="-0.28405">
        <ele>128</ele>
        <time>2023-06-12T21:27:53Z</time>
      </trkpt>
      <trkpt lat="48.85312" lon="-0.28399">
        <ele>128</ele>
        <time>2023-06-12T21:27:54Z</time>
      </trkpt>
      <trkpt lat="48.8535" lon="-0.28428">
        <ele>131</ele>
        <time>2023-06-12T21:28:04Z</time>
      </trkpt>
      <trkpt lat="48.85364" lon="-0.28389">
        <ele>132</ele>
        <time>2023-06-12T21:28:11Z</time>
      </trkpt>
      <trkpt lat="48.85452" lon="-0.28224">
        <ele>143</ele>
        <time>2023-06-12T21:28:44Z</time>
      </trkpt>
      <trkpt lat="48.85486" lon="-0.2815">
        <ele>149</ele>
        <time>2023-06-12T21:28:58Z</time>
      </trkpt>
      <trkpt lat="48.85501" lon="-0.28129">
        <ele>152</ele>
        <time>2023-06-12T21:29:02Z</time>
      </trkpt>
      <trkpt lat="48.85511" lon="-0.28108">
        <ele>154</ele>
        <time>2023-06-12T21:29:06Z</time>
      </trkpt>
      <trkpt lat="48.8553" lon="-0.28024">
        <ele>155</ele>
        <time>2023-06-12T21:29:20Z</time>
      </trkpt>
      <trkpt lat="48.85526" lon="-0.27938">
        <ele>154</ele>
        <time>2023-06-12T21:29:33Z</time>
      </trkpt>
      <trkpt lat="48.85496" lon="-0.27736">
        <ele>154</ele>
        <time>2023-06-12T21:30:05Z</time>
      </trkpt>
      <trkpt lat="48.85471" lon="-0.27617">
        <ele>154</ele>
        <time>2023-06-12T21:30:24Z</time>
      </trkpt>
      <trkpt lat="48.85471" lon="-0.27577">
        <ele>155</ele>
        <time>2023-06-12T21:30:30Z</time>
      </trkpt>
      <trkpt lat="48.85484" lon="-0.2753">
        <ele>155</ele>
        <time>2023-06-12T21:30:38Z</time>
      </trkpt>
      <trkpt lat="48.85495" lon="-0.27507">
        <ele>156</ele>
        <time>2023-06-12T21:30:43Z</time>
      </trkpt>
      <trkpt lat="48.85514" lon="-0.27495">
        <ele>157</ele>
        <time>2023-06-12T21:30:47Z</time>
      </trkpt>
      <trkpt lat="48.85542" lon="-0.27487">
        <ele>160</ele>
        <time>2023-06-12T21:30:54Z</time>
      </trkpt>
      <trkpt lat="48.85554" lon="-0.27472">
        <ele>159</ele>
        <time>2023-06-12T21:30:58Z</time>
      </trkpt>
      <trkpt lat="48.85559" lon="-0.2746">
        <ele>157</ele>
        <time>2023-06-12T21:31:00Z</time>
      </trkpt>
      <trkpt lat="48.85559" lon="-0.27445">
        <ele>155</ele>
        <time>2023-06-12T21:31:02Z</time>
      </trkpt>
      <trkpt lat="48.85549" lon="-0.27414">
        <ele>151</ele>
        <time>2023-06-12T21:31:07Z</time>
      </trkpt>
      <trkpt lat="48.85509" lon="-0.27382">
        <ele>154</ele>
        <time>2023-06-12T21:31:18Z</time>
      </trkpt>
      <trkpt lat="48.85499" lon="-0.2737">
        <ele>154</ele>
        <time>2023-06-12T21:31:21Z</time>
      </trkpt>
      <trkpt lat="48.85479" lon="-0.27337">
        <ele>155</ele>
        <time>2023-06-12T21:31:28Z</time>
      </trkpt>
      <trkpt lat="48.8547" lon="-0.27314">
        <ele>155</ele>
        <time>2023-06-12T21:31:32Z</time>
      </trkpt>
      <trkpt lat="48.85462" lon="-0.27269">
        <ele>157</ele>
        <time>2023-06-12T21:31:39Z</time>
      </trkpt>
      <trkpt lat="48.85463" lon="-0.27232">
        <ele>159</ele>
        <time>2023-06-12T21:31:45Z</time>
      </trkpt>
      <trkpt lat="48.85465" lon="-0.27217">
        <ele>160</ele>
        <time>2023-06-12T21:31:47Z</time>
      </trkpt>
      <trkpt lat="48.85478" lon="-0.27169">
        <ele>164</ele>
        <time>2023-06-12T21:31:55Z</time>
      </trkpt>
      <trkpt lat="48.85494" lon="-0.27128">
        <ele>168</ele>
        <time>2023-06-12T21:32:03Z</time>
      </trkpt>
      <trkpt lat="48.85501" lon="-0.27101">
        <ele>169</ele>
        <time>2023-06-12T21:32:07Z</time>
      </trkpt>
      <trkpt lat="48.8551" lon="-0.27054">
        <ele>169</ele>
        <time>2023-06-12T21:32:15Z</time>
      </trkpt>
      <trkpt lat="48.85515" lon="-0.27005">
        <ele>167</ele>
        <time>2023-06-12T21:32:22Z</time>
      </trkpt>
      <trkpt lat="48.85515" lon="-0.26974">
        <ele>167</ele>
        <time>2023-06-12T21:32:27Z</time>
      </trkpt>
      <trkpt lat="48.85495" lon="-0.2679">
        <ele>168</ele>
        <time>2023-06-12T21:32:56Z</time>
      </trkpt>
      <trkpt lat="48.85486" lon="-0.26783">
        <ele>165</ele>
        <time>2023-06-12T21:32:58Z</time>
      </trkpt>
      <trkpt lat="48.85463" lon="-0.26756">
        <ele>160</ele>
        <time>2023-06-12T21:33:05Z</time>
      </trkpt>
      <trkpt lat="48.85437" lon="-0.267">
        <ele>157</ele>
        <time>2023-06-12T21:33:15Z</time>
      </trkpt>
      <trkpt lat="48.85411" lon="-0.26654">
        <ele>155</ele>
        <time>2023-06-12T21:33:25Z</time>
      </trkpt>
      <trkpt lat="48.85406" lon="-0.26639">
        <ele>155</ele>
        <time>2023-06-12T21:33:27Z</time>
      </trkpt>
      <trkpt lat="48.85403" lon="-0.26598">
        <ele>158</ele>
        <time>2023-06-12T21:33:33Z</time>
      </trkpt>
      <trkpt lat="48.85413" lon="-0.26431">
        <ele>169</ele>
        <time>2023-06-12T21:33:59Z</time>
      </trkpt>
      <trkpt lat="48.85418" lon="-0.26391">
        <ele>171</ele>
        <time>2023-06-12T21:34:05Z</time>
      </trkpt>
      <trkpt lat="48.85426" lon="-0.26358">
        <ele>172</ele>
        <time>2023-06-12T21:34:11Z</time>
      </trkpt>
      <trkpt lat="48.85442" lon="-0.26327">
        <ele>175</ele>
        <time>2023-06-12T21:34:17Z</time>
      </trkpt>
      <trkpt lat="48.85448" lon="-0.26324">
        <ele>175</ele>
        <time>2023-06-12T21:34:18Z</time>
      </trkpt>
      <trkpt lat="48.8545" lon="-0.26319">
        <ele>175</ele>
        <time>2023-06-12T21:34:19Z</time>
      </trkpt>
      <trkpt lat="48.85454" lon="-0.26264">
        <ele>173</ele>
        <time>2023-06-12T21:34:28Z</time>
      </trkpt>
      <trkpt lat="48.85466" lon="-0.26183">
        <ele>176</ele>
        <time>2023-06-12T21:34:41Z</time>
      </trkpt>
      <trkpt lat="48.85443" lon="-0.26109">
        <ele>174</ele>
        <time>2023-06-12T21:34:53Z</time>
      </trkpt>
      <trkpt lat="48.85419" lon="-0.26052">
        <ele>175</ele>
        <time>2023-06-12T21:35:04Z</time>
      </trkpt>
      <trkpt lat="48.85361" lon="-0.25887">
        <ele>176</ele>
        <time>2023-06-12T21:35:32Z</time>
      </trkpt>
      <trkpt lat="48.85315" lon="-0.25806">
        <ele>174</ele>
        <time>2023-06-12T21:35:49Z</time>
      </trkpt>
      <trkpt lat="48.85294" lon="-0.25763">
        <ele>172</ele>
        <time>2023-06-12T21:35:57Z</time>
      </trkpt>
      <trkpt lat="48.85255" lon="-0.25642">
        <ele>168</ele>
        <time>2023-06-12T21:36:18Z</time>
      </trkpt>
      <trkpt lat="48.85244" lon="-0.25619">
        <ele>165</ele>
        <time>2023-06-12T21:36:22Z</time>
      </trkpt>
      <trkpt lat="48.85202" lon="-0.25575">
        <ele>160</ele>
        <time>2023-06-12T21:36:34Z</time>
      </trkpt>
      <trkpt lat="48.8515" lon="-0.2551">
        <ele>153</ele>
        <time>2023-06-12T21:36:50Z</time>
      </trkpt>
      <trkpt lat="48.85131" lon="-0.25493">
        <ele>152</ele>
        <time>2023-06-12T21:36:55Z</time>
      </trkpt>
      <trkpt lat="48.85102" lon="-0.25486">
        <ele>150</ele>
        <time>2023-06-12T21:37:02Z</time>
      </trkpt>
      <trkpt lat="48.85056" lon="-0.25501">
        <ele>147</ele>
        <time>2023-06-12T21:37:13Z</time>
      </trkpt>
      <trkpt lat="48.85057" lon="-0.25495">
        <ele>147</ele>
        <time>2023-06-12T21:37:14Z</time>
      </trkpt>
      <trkpt lat="48.85085" lon="-0.25475">
        <ele>149</ele>
        <time>2023-06-12T21:37:21Z</time>
      </trkpt>
      <trkpt lat="48.85088" lon="-0.25467">
        <ele>149</ele>
        <time>2023-06-12T21:37:22Z</time>
      </trkpt>
      <trkpt lat="48.85087" lon="-0.25448">
        <ele>148</ele>
        <time>2023-06-12T21:37:25Z</time>
      </trkpt>
      <trkpt lat="48.85077" lon="-0.2542">
        <ele>147</ele>
        <time>2023-06-12T21:37:30Z</time>
      </trkpt>
      <trkpt lat="48.85065" lon="-0.25421">
        <ele>146</ele>
        <time>2023-06-12T21:37:33Z</time>
      </trkpt>
      <trkpt lat="48.85051" lon="-0.25412">
        <ele>146</ele>
        <time>2023-06-12T21:37:36Z</time>
      </trkpt>
      <trkpt lat="48.85049" lon="-0.25397">
        <ele>146</ele>
        <time>2023-06-12T21:37:39Z</time>
      </trkpt>
      <trkpt lat="48.85052" lon="-0.25383">
        <ele>147</ele>
        <time>2023-06-12T21:37:41Z</time>
      </trkpt>
      <trkpt lat="48.85051" lon="-0.25336">
        <ele>149</ele>
        <time>2023-06-12T21:37:48Z</time>
      </trkpt>
      <trkpt lat="48.85096" lon="-0.25245">
        <ele>161</ele>
        <time>2023-06-12T21:38:06Z</time>
      </trkpt>
      <trkpt lat="48.85109" lon="-0.25212">
        <ele>165</ele>
        <time>2023-06-12T21:38:12Z</time>
      </trkpt>
      <trkpt lat="48.8512" lon="-0.25171">
        <ele>168</ele>
        <time>2023-06-12T21:38:18Z</time>
      </trkpt>
      <trkpt lat="48.8512" lon="-0.25108">
        <ele>170</ele>
        <time>2023-06-12T21:38:28Z</time>
      </trkpt>
      <trkpt lat="48.85123" lon="-0.25048">
        <ele>171</ele>
        <time>2023-06-12T21:38:37Z</time>
      </trkpt>
      <trkpt lat="48.8513" lon="-0.24978">
        <ele>173</ele>
        <time>2023-06-12T21:38:48Z</time>
      </trkpt>
      <trkpt lat="48.85156" lon="-0.2488">
        <ele>179</ele>
        <time>2023-06-12T21:39:05Z</time>
      </trkpt>
      <trkpt lat="48.8515" lon="-0.2481">
        <ele>178</ele>
        <time>2023-06-12T21:39:15Z</time>
      </trkpt>
      <trkpt lat="48.85132" lon="-0.24662">
        <ele>177</ele>
        <time>2023-06-12T21:39:39Z</time>
      </trkpt>
      <trkpt lat="48.85122" lon="-0.24625">
        <ele>177</ele>
        <time>2023-06-12T21:39:45Z</time>
      </trkpt>
      <trkpt lat="48.85105" lon="-0.24541">
        <ele>178</ele>
        <time>2023-06-12T21:39:58Z</time>
      </trkpt>
      <trkpt lat="48.85098" lon="-0.24492">
        <ele>179</ele>
        <time>2023-06-12T21:40:06Z</time>
      </trkpt>
      <trkpt lat="48.85084" lon="-0.24433">
        <ele>178</ele>
        <time>2023-06-12T21:40:16Z</time>
      </trkpt>
      <trkpt lat="48.8507" lon="-0.24328">
        <ele>174</ele>
        <time>2023-06-12T21:40:32Z</time>
      </trkpt>
      <trkpt lat="48.85057" lon="-0.24257">
        <ele>173</ele>
        <time>2023-06-12T21:40:43Z</time>
      </trkpt>
      <trkpt lat="48.85057" lon="-0.24235">
        <ele>174</ele>
        <time>2023-06-12T21:40:47Z</time>
      </trkpt>
      <trkpt lat="48.85051" lon="-0.24206">
        <ele>173</ele>
        <time>2023-06-12T21:40:51Z</time>
      </trkpt>
      <trkpt lat="48.85039" lon="-0.24163">
        <ele>173</ele>
        <time>2023-06-12T21:40:59Z</time>
      </trkpt>
      <trkpt lat="48.84936" lon="-0.23941">
        <ele>163</ele>
        <time>2023-06-12T21:41:40Z</time>
      </trkpt>
      <trkpt lat="48.84909" lon="-0.23908">
        <ele>160</ele>
        <time>2023-06-12T21:41:48Z</time>
      </trkpt>
      <trkpt lat="48.84907" lon="-0.23901">
        <ele>161</ele>
        <time>2023-06-12T21:41:50Z</time>
      </trkpt>
      <trkpt lat="48.84918" lon="-0.23865">
        <ele>166</ele>
        <time>2023-06-12T21:41:56Z</time>
      </trkpt>
      <trkpt lat="48.84912" lon="-0.23809">
        <ele>170</ele>
        <time>2023-06-12T21:42:04Z</time>
      </trkpt>
      <trkpt lat="48.84892" lon="-0.23733">
        <ele>169</ele>
        <time>2023-06-12T21:42:17Z</time>
      </trkpt>
      <trkpt lat="48.84878" lon="-0.2369">
        <ele>167</ele>
        <time>2023-06-12T21:42:24Z</time>
      </trkpt>
      <trkpt lat="48.84851" lon="-0.23624">
        <ele>163</ele>
        <time>2023-06-12T21:42:36Z</time>
      </trkpt>
      <trkpt lat="48.84802" lon="-0.23375">
        <ele>158</ele>
        <time>2023-06-12T21:43:16Z</time>
      </trkpt>
      <trkpt lat="48.84793" lon="-0.233">
        <ele>159</ele>
        <time>2023-06-12T21:43:28Z</time>
      </trkpt>
      <trkpt lat="48.8478" lon="-0.23231">
        <ele>159</ele>
        <time>2023-06-12T21:43:39Z</time>
      </trkpt>
      <trkpt lat="48.84755" lon="-0.23186">
        <ele>155</ele>
        <time>2023-06-12T21:43:48Z</time>
      </trkpt>
      <trkpt lat="48.84713" lon="-0.23148">
        <ele>154</ele>
        <time>2023-06-12T21:43:59Z</time>
      </trkpt>
      <trkpt lat="48.84708" lon="-0.23122">
        <ele>156</ele>
        <time>2023-06-12T21:44:04Z</time>
      </trkpt>
      <trkpt lat="48.8472" lon="-0.23102">
        <ele>158</ele>
        <time>2023-06-12T21:44:08Z</time>
      </trkpt>
      <trkpt lat="48.84734" lon="-0.23085">
        <ele>161</ele>
        <time>2023-06-12T21:44:12Z</time>
      </trkpt>
      <trkpt lat="48.84734" lon="-0.23075">
        <ele>162</ele>
        <time>2023-06-12T21:44:13Z</time>
      </trkpt>
      <trkpt lat="48.84688" lon="-0.22942">
        <ele>170</ele>
        <time>2023-06-12T21:44:37Z</time>
      </trkpt>
      <trkpt lat="48.84628" lon="-0.22755">
        <ele>172</ele>
        <time>2023-06-12T21:45:08Z</time>
      </trkpt>
      <trkpt lat="48.84592" lon="-0.22776">
        <ele>166</ele>
        <time>2023-06-12T21:45:18Z</time>
      </trkpt>
      <trkpt lat="48.84581" lon="-0.22746">
        <ele>166</ele>
        <time>2023-06-12T21:45:23Z</time>
      </trkpt>
      <trkpt lat="48.84571" lon="-0.22659">
        <ele>169</ele>
        <time>2023-06-12T21:45:36Z</time>
      </trkpt>
      <trkpt lat="48.8456" lon="-0.22602">
        <ele>169</ele>
        <time>2023-06-12T21:45:45Z</time>
      </trkpt>
      <trkpt lat="48.84549" lon="-0.22497">
        <ele>171</ele>
        <time>2023-06-12T21:46:02Z</time>
      </trkpt>
      <trkpt lat="48.84524" lon="-0.22404">
        <ele>171</ele>
        <time>2023-06-12T21:46:17Z</time>
      </trkpt>
      <trkpt lat="48.84519" lon="-0.22377">
        <ele>171</ele>
        <time>2023-06-12T21:46:22Z</time>
      </trkpt>
      <trkpt lat="48.84496" lon="-0.22314">
        <ele>172</ele>
        <time>2023-06-12T21:46:33Z</time>
      </trkpt>
      <trkpt lat="48.84428" lon="-0.22189">
        <ele>171</ele>
        <time>2023-06-12T21:46:58Z</time>
      </trkpt>
      <trkpt lat="48.84339" lon="-0.22035">
        <ele>162</ele>
        <time>2023-06-12T21:47:29Z</time>
      </trkpt>
      <trkpt lat="48.84317" lon="-0.21981">
        <ele>160</ele>
        <time>2023-06-12T21:47:39Z</time>
      </trkpt>
      <trkpt lat="48.84304" lon="-0.21939">
        <ele>160</ele>
        <time>2023-06-12T21:47:46Z</time>
      </trkpt>
      <trkpt lat="48.84299" lon="-0.21714">
        <ele>173</ele>
        <time>2023-06-12T21:48:21Z</time>
      </trkpt>
      <trkpt lat="48.84312" lon="-0.21631">
        <ele>177</ele>
        <time>2023-06-12T21:48:34Z</time>
      </trkpt>
      <trkpt lat="48.84319" lon="-0.21604">
        <ele>178</ele>
        <time>2023-06-12T21:48:38Z</time>
      </trkpt>
      <trkpt lat="48.84325" lon="-0.21593">
        <ele>178</ele>
        <time>2023-06-12T21:48:40Z</time>
      </trkpt>
      <trkpt lat="48.8428" lon="-0.21437">
        <ele>179</ele>
        <time>2023-06-12T21:49:07Z</time>
      </trkpt>
      <trkpt lat="48.84251" lon="-0.21309">
        <ele>180</ele>
        <time>2023-06-12T21:49:27Z</time>
      </trkpt>
      <trkpt lat="48.84206" lon="-0.21138">
        <ele>177</ele>
        <time>2023-06-12T21:49:56Z</time>
      </trkpt>
      <trkpt lat="48.84194" lon="-0.21113">
        <ele>177</ele>
        <time>2023-06-12T21:50:00Z</time>
      </trkpt>
      <trkpt lat="48.84176" lon="-0.21095">
        <ele>178</ele>
        <time>2023-06-12T21:50:05Z</time>
      </trkpt>
      <trkpt lat="48.84128" lon="-0.21056">
        <ele>177</ele>
        <time>2023-06-12T21:50:18Z</time>
      </trkpt>
      <trkpt lat="48.84044" lon="-0.20901">
        <ele>177</ele>
        <time>2023-06-12T21:50:49Z</time>
      </trkpt>
      <trkpt lat="48.84066" lon="-0.2087">
        <ele>178</ele>
        <time>2023-06-12T21:50:56Z</time>
      </trkpt>
      <trkpt lat="48.84089" lon="-0.20849">
        <ele>178</ele>
        <time>2023-06-12T21:51:02Z</time>
      </trkpt>
      <trkpt lat="48.84305" lon="-0.20659">
        <ele>184</ele>
        <time>2023-06-12T21:52:01Z</time>
      </trkpt>
      <trkpt lat="48.84369" lon="-0.20608">
        <ele>187</ele>
        <time>2023-06-12T21:52:17Z</time>
      </trkpt>
      <trkpt lat="48.84384" lon="-0.20608">
        <ele>188</ele>
        <time>2023-06-12T21:52:21Z</time>
      </trkpt>
      <trkpt lat="48.84397" lon="-0.20605">
        <ele>188</ele>
        <time>2023-06-12T21:52:24Z</time>
      </trkpt>
      <trkpt lat="48.84464" lon="-0.2058">
        <ele>194</ele>
        <time>2023-06-12T21:52:40Z</time>
      </trkpt>
      <trkpt lat="48.8452" lon="-0.20564">
        <ele>200</ele>
        <time>2023-06-12T21:52:53Z</time>
      </trkpt>
      <trkpt lat="48.8456" lon="-0.20543">
        <ele>205</ele>
        <time>2023-06-12T21:53:03Z</time>
      </trkpt>
      <trkpt lat="48.84626" lon="-0.20492">
        <ele>213</ele>
        <time>2023-06-12T21:53:21Z</time>
      </trkpt>
      <trkpt lat="48.84636" lon="-0.20493">
        <ele>214</ele>
        <time>2023-06-12T21:53:23Z</time>
      </trkpt>
      <trkpt lat="48.8463" lon="-0.20518">
        <ele>213</ele>
        <time>2023-06-12T21:53:27Z</time>
      </trkpt>
      <trkpt lat="48.84627" lon="-0.20565">
        <ele>210</ele>
        <time>2023-06-12T21:53:34Z</time>
      </trkpt>
      <trkpt lat="48.84621" lon="-0.20589">
        <ele>208</ele>
        <time>2023-06-12T21:53:38Z</time>
      </trkpt>
      <trkpt lat="48.84571" lon="-0.20639">
        <ele>200</ele>
        <time>2023-06-12T21:53:52Z</time>
      </trkpt>
      <trkpt lat="48.84507" lon="-0.20729">
        <ele>191</ele>
        <time>2023-06-12T21:54:13Z</time>
      </trkpt>
      <trkpt lat="48.84507" lon="-0.2075">
        <ele>191</ele>
        <time>2023-06-12T21:54:16Z</time>
      </trkpt>
      <trkpt lat="48.8451" lon="-0.20767">
        <ele>190</ele>
        <time>2023-06-12T21:54:18Z</time>
      </trkpt>
      <trkpt lat="48.84517" lon="-0.20772">
        <ele>190</ele>
        <time>2023-06-12T21:54:20Z</time>
      </trkpt>
      <trkpt lat="48.84524" lon="-0.20785">
        <ele>191</ele>
        <time>2023-06-12T21:54:23Z</time>
      </trkpt>
      <trkpt lat="48.84533" lon="-0.20788">
        <ele>191</ele>
        <time>2023-06-12T21:54:25Z</time>
      </trkpt>
      <trkpt lat="48.84552" lon="-0.20769">
        <ele>193</ele>
        <time>2023-06-12T21:54:30Z</time>
      </trkpt>
      <trkpt lat="48.84559" lon="-0.20773">
        <ele>194</ele>
        <time>2023-06-12T21:54:32Z</time>
      </trkpt>
      <trkpt lat="48.84634" lon="-0.20973">
        <ele>194</ele>
        <time>2023-06-12T21:55:07Z</time>
      </trkpt>
      <trkpt lat="48.84713" lon="-0.21147">
        <ele>193</ele>
        <time>2023-06-12T21:55:40Z</time>
      </trkpt>
      <trkpt lat="48.84747" lon="-0.21251">
        <ele>190</ele>
        <time>2023-06-12T21:55:58Z</time>
      </trkpt>
      <trkpt lat="48.84789" lon="-0.21352">
        <ele>190</ele>
        <time>2023-06-12T21:56:16Z</time>
      </trkpt>
      <trkpt lat="48.84809" lon="-0.21394">
        <ele>190</ele>
        <time>2023-06-12T21:56:24Z</time>
      </trkpt>
      <trkpt lat="48.8483" lon="-0.2145">
        <ele>190</ele>
        <time>2023-06-12T21:56:34Z</time>
      </trkpt>
      <trkpt lat="48.84881" lon="-0.21547">
        <ele>190</ele>
        <time>2023-06-12T21:56:53Z</time>
      </trkpt>
      <trkpt lat="48.8499" lon="-0.21847">
        <ele>191</ele>
        <time>2023-06-12T21:57:46Z</time>
      </trkpt>
      <trkpt lat="48.85019" lon="-0.2195">
        <ele>191</ele>
        <time>2023-06-12T21:58:03Z</time>
      </trkpt>
      <trkpt lat="48.85045" lon="-0.22012">
        <ele>190</ele>
        <time>2023-06-12T21:58:14Z</time>
      </trkpt>
      <trkpt lat="48.85094" lon="-0.22143">
        <ele>189</ele>
        <time>2023-06-12T21:58:37Z</time>
      </trkpt>
      <trkpt lat="48.85109" lon="-0.22163">
        <ele>189</ele>
        <time>2023-06-12T21:58:42Z</time>
      </trkpt>
      <trkpt lat="48.85127" lon="-0.22147">
        <ele>190</ele>
        <time>2023-06-12T21:58:47Z</time>
      </trkpt>
      <trkpt lat="48.8516" lon="-0.22109">
        <ele>193</ele>
        <time>2023-06-12T21:58:57Z</time>
      </trkpt>
      <trkpt lat="48.85226" lon="-0.22047">
        <ele>202</ele>
        <time>2023-06-12T21:59:15Z</time>
      </trkpt>
      <trkpt lat="48.85299" lon="-0.21966">
        <ele>212</ele>
        <time>2023-06-12T21:59:36Z</time>
      </trkpt>
      <trkpt lat="48.85394" lon="-0.21873">
        <ele>217</ele>
        <time>2023-06-12T22:00:02Z</time>
      </trkpt>
      <trkpt lat="48.85401" lon="-0.21865">
        <ele>217</ele>
        <time>2023-06-12T22:00:04Z</time>
      </trkpt>
      <trkpt lat="48.85408" lon="-0.21849">
        <ele>217</ele>
        <time>2023-06-12T22:00:07Z</time>
      </trkpt>
      <trkpt lat="48.85455" lon="-0.21798">
        <ele>219</ele>
        <time>2023-06-12T22:00:21Z</time>
      </trkpt>
      <trkpt lat="48.85518" lon="-0.21716">
        <ele>220</ele>
        <time>2023-06-12T22:00:40Z</time>
      </trkpt>
      <trkpt lat="48.85567" lon="-0.21635">
        <ele>219</ele>
        <time>2023-06-12T22:00:57Z</time>
      </trkpt>
      <trkpt lat="48.85603" lon="-0.21597">
        <ele>216</ele>
        <time>2023-06-12T22:01:07Z</time>
      </trkpt>
      <trkpt lat="48.85648" lon="-0.21557">
        <ele>213</ele>
        <time>2023-06-12T22:01:19Z</time>
      </trkpt>
      <trkpt lat="48.85682" lon="-0.21522">
        <ele>211</ele>
        <time>2023-06-12T22:01:29Z</time>
      </trkpt>
      <trkpt lat="48.85705" lon="-0.21503">
        <ele>210</ele>
        <time>2023-06-12T22:01:35Z</time>
      </trkpt>
      <trkpt lat="48.85773" lon="-0.21415">
        <ele>209</ele>
        <time>2023-06-12T22:01:56Z</time>
      </trkpt>
      <trkpt lat="48.85799" lon="-0.21397">
        <ele>210</ele>
        <time>2023-06-12T22:02:03Z</time>
      </trkpt>
      <trkpt lat="48.85832" lon="-0.21382">
        <ele>212</ele>
        <time>2023-06-12T22:02:11Z</time>
      </trkpt>
      <trkpt lat="48.85862" lon="-0.21376">
        <ele>213</ele>
        <time>2023-06-12T22:02:18Z</time>
      </trkpt>
      <trkpt lat="48.85973" lon="-0.21369">
        <ele>215</ele>
        <time>2023-06-12T22:02:44Z</time>
      </trkpt>
      <trkpt lat="48.85986" lon="-0.21378">
        <ele>215</ele>
        <time>2023-06-12T22:02:47Z</time>
      </trkpt>
      <trkpt lat="48.86081" lon="-0.21562">
        <ele>211</ele>
        <time>2023-06-12T22:03:23Z</time>
      </trkpt>
      <trkpt lat="48.86122" lon="-0.21644">
        <ele>208</ele>
        <time>2023-06-12T22:03:39Z</time>
      </trkpt>
      <trkpt lat="48.86138" lon="-0.21682">
        <ele>208</ele>
        <time>2023-06-12T22:03:46Z</time>
      </trkpt>
      <trkpt lat="48.86195" lon="-0.21794">
        <ele>210</ele>
        <time>2023-06-12T22:04:08Z</time>
      </trkpt>
      <trkpt lat="48.86291" lon="-0.21999">
        <ele>208</ele>
        <time>2023-06-12T22:04:46Z</time>
      </trkpt>
      <trkpt lat="48.86336" lon="-0.22102">
        <ele>209</ele>
        <time>2023-06-12T22:05:05Z</time>
      </trkpt>
      <trkpt lat="48.86475" lon="-0.22487">
        <ele>208</ele>
        <time>2023-06-12T22:06:13Z</time>
      </trkpt>
      <trkpt lat="48.86521" lon="-0.22639">
        <ele>208</ele>
        <time>2023-06-12T22:06:38Z</time>
      </trkpt>
      <trkpt lat="48.86548" lon="-0.22745">
        <ele>207</ele>
        <time>2023-06-12T22:06:56Z</time>
      </trkpt>
      <trkpt lat="48.86587" lon="-0.22863">
        <ele>206</ele>
        <time>2023-06-12T22:07:16Z</time>
      </trkpt>
      <trkpt lat="48.86601" lon="-0.22921">
        <ele>207</ele>
        <time>2023-06-12T22:07:26Z</time>
      </trkpt>
      <trkpt lat="48.86606" lon="-0.22955">
        <ele>207</ele>
        <time>2023-06-12T22:07:31Z</time>
      </trkpt>
      <trkpt lat="48.86629" lon="-0.2294">
        <ele>207</ele>
        <time>2023-06-12T22:07:37Z</time>
      </trkpt>
      <trkpt lat="48.86676" lon="-0.22886">
        <ele>205</ele>
        <time>2023-06-12T22:07:51Z</time>
      </trkpt>
      <trkpt lat="48.86763" lon="-0.22759">
        <ele>201</ele>
        <time>2023-06-12T22:08:19Z</time>
      </trkpt>
      <trkpt lat="48.86852" lon="-0.22642">
        <ele>200</ele>
        <time>2023-06-12T22:08:46Z</time>
      </trkpt>
      <trkpt lat="48.86873" lon="-0.2261">
        <ele>199</ele>
        <time>2023-06-12T22:08:53Z</time>
      </trkpt>
      <trkpt lat="48.86947" lon="-0.22527">
        <ele>200</ele>
        <time>2023-06-12T22:09:15Z</time>
      </trkpt>
      <trkpt lat="48.86963" lon="-0.22503">
        <ele>201</ele>
        <time>2023-06-12T22:09:20Z</time>
      </trkpt>
      <trkpt lat="48.86973" lon="-0.22483">
        <ele>201</ele>
        <time>2023-06-12T22:09:24Z</time>
      </trkpt>
      <trkpt lat="48.86975" lon="-0.22448">
        <ele>202</ele>
        <time>2023-06-12T22:09:29Z</time>
      </trkpt>
      <trkpt lat="48.86982" lon="-0.2242">
        <ele>203</ele>
        <time>2023-06-12T22:09:34Z</time>
      </trkpt>
      <trkpt lat="48.87009" lon="-0.22417">
        <ele>203</ele>
        <time>2023-06-12T22:09:40Z</time>
      </trkpt>
      <trkpt lat="48.87023" lon="-0.22413">
        <ele>202</ele>
        <time>2023-06-12T22:09:43Z</time>
      </trkpt>
      <trkpt lat="48.87033" lon="-0.22406">
        <ele>201</ele>
        <time>2023-06-12T22:09:46Z</time>
      </trkpt>
      <trkpt lat="48.87065" lon="-0.22373">
        <ele>200</ele>
        <time>2023-06-12T22:09:55Z</time>
      </trkpt>
      <trkpt lat="48.87086" lon="-0.22346">
        <ele>199</ele>
        <time>2023-06-12T22:10:01Z</time>
      </trkpt>
      <trkpt lat="48.87169" lon="-0.22267">
        <ele>196</ele>
        <time>2023-06-12T22:10:24Z</time>
      </trkpt>
      <trkpt lat="48.8759" lon="-0.21838">
        <ele>180</ele>
        <time>2023-06-12T22:12:23Z</time>
      </trkpt>
      <trkpt lat="48.87622" lon="-0.21789">
        <ele>180</ele>
        <time>2023-06-12T22:12:33Z</time>
      </trkpt>
      <trkpt lat="48.87662" lon="-0.21712">
        <ele>179</ele>
        <time>2023-06-12T22:12:48Z</time>
      </trkpt>
      <trkpt lat="48.87744" lon="-0.21534">
        <ele>177</ele>
        <time>2023-06-12T22:13:22Z</time>
      </trkpt>
      <trkpt lat="48.879" lon="-0.2129">
        <ele>174</ele>
        <time>2023-06-12T22:14:14Z</time>
      </trkpt>
      <trkpt lat="48.87944" lon="-0.21225">
        <ele>174</ele>
        <time>2023-06-12T22:14:28Z</time>
      </trkpt>
      <trkpt lat="48.88028" lon="-0.21089">
        <ele>174</ele>
        <time>2023-06-12T22:14:57Z</time>
      </trkpt>
      <trkpt lat="48.88062" lon="-0.21045">
        <ele>174</ele>
        <time>2023-06-12T22:15:07Z</time>
      </trkpt>
      <trkpt lat="48.88109" lon="-0.20969">
        <ele>173</ele>
        <time>2023-06-12T22:15:23Z</time>
      </trkpt>
      <trkpt lat="48.88159" lon="-0.20864">
        <ele>174</ele>
        <time>2023-06-12T22:15:43Z</time>
      </trkpt>
      <trkpt lat="48.88149" lon="-0.20843">
        <ele>174</ele>
        <time>2023-06-12T22:15:47Z</time>
      </trkpt>
      <trkpt lat="48.88123" lon="-0.20801">
        <ele>176</ele>
        <time>2023-06-12T22:15:56Z</time>
      </trkpt>
      <trkpt lat="48.88205" lon="-0.20698">
        <ele>175</ele>
        <time>2023-06-12T22:16:21Z</time>
      </trkpt>
      <trkpt lat="48.88205" lon="-0.20674">
        <ele>175</ele>
        <time>2023-06-12T22:16:25Z</time>
      </trkpt>
      <trkpt lat="48.8822" lon="-0.20664">
        <ele>175</ele>
        <time>2023-06-12T22:16:28Z</time>
      </trkpt>
      <trkpt lat="48.88229" lon="-0.20665">
        <ele>175</ele>
        <time>2023-06-12T22:16:31Z</time>
      </trkpt>
      <trkpt lat="48.88255" lon="-0.20638">
        <ele>174</ele>
        <time>2023-06-12T22:16:38Z</time>
      </trkpt>
      <trkpt lat="48.88312" lon="-0.20602">
        <ele>173</ele>
        <time>2023-06-12T22:16:52Z</time>
      </trkpt>
      <trkpt lat="48.88348" lon="-0.20569">
        <ele>172</ele>
        <time>2023-06-12T22:17:02Z</time>
      </trkpt>
      <trkpt lat="48.88361" lon="-0.20588">
        <ele>172</ele>
        <time>2023-06-12T22:17:06Z</time>
      </trkpt>
      <trkpt lat="48.88397" lon="-0.20576">
        <ele>170</ele>
        <time>2023-06-12T22:17:15Z</time>
      </trkpt>
      <trkpt lat="48.88423" lon="-0.20558">
        <ele>168</ele>
        <time>2023-06-12T22:17:22Z</time>
      </trkpt>
      <trkpt lat="48.88477" lon="-0.20442">
        <ele>163</ele>
        <time>2023-06-12T22:17:43Z</time>
      </trkpt>
      <trkpt lat="48.88504" lon="-0.20414">
        <ele>162</ele>
        <time>2023-06-12T22:17:51Z</time>
      </trkpt>
      <trkpt lat="48.88583" lon="-0.20299">
        <ele>162</ele>
        <time>2023-06-12T22:18:17Z</time>
      </trkpt>
      <trkpt lat="48.88613" lon="-0.20277">
        <ele>162</ele>
        <time>2023-06-12T22:18:24Z</time>
      </trkpt>
      <trkpt lat="48.88657" lon="-0.20257">
        <ele>163</ele>
        <time>2023-06-12T22:18:35Z</time>
      </trkpt>
      <trkpt lat="48.88705" lon="-0.20237">
        <ele>160</ele>
        <time>2023-06-12T22:18:47Z</time>
      </trkpt>
      <trkpt lat="48.88779" lon="-0.20216">
        <ele>156</ele>
        <time>2023-06-12T22:19:04Z</time>
      </trkpt>
      <trkpt lat="48.8884" lon="-0.20172">
        <ele>156</ele>
        <time>2023-06-12T22:19:20Z</time>
      </trkpt>
      <trkpt lat="48.88877" lon="-0.20151">
        <ele>157</ele>
        <time>2023-06-12T22:19:29Z</time>
      </trkpt>
      <trkpt lat="48.88921" lon="-0.20155">
        <ele>158</ele>
        <time>2023-06-12T22:19:40Z</time>
      </trkpt>
      <trkpt lat="48.89006" lon="-0.20204">
        <ele>156</ele>
        <time>2023-06-12T22:20:01Z</time>
      </trkpt>
      <trkpt lat="48.89044" lon="-0.20239">
        <ele>154</ele>
        <time>2023-06-12T22:20:11Z</time>
      </trkpt>
      <trkpt lat="48.89074" lon="-0.20279">
        <ele>152</ele>
        <time>2023-06-12T22:20:21Z</time>
      </trkpt>
      <trkpt lat="48.89104" lon="-0.20313">
        <ele>149</ele>
        <time>2023-06-12T22:20:29Z</time>
      </trkpt>
      <trkpt lat="48.89149" lon="-0.20301">
        <ele>147</ele>
        <time>2023-06-12T22:20:40Z</time>
      </trkpt>
      <trkpt lat="48.89226" lon="-0.20133">
        <ele>141</ele>
        <time>2023-06-12T22:21:11Z</time>
      </trkpt>
      <trkpt lat="48.89251" lon="-0.20164">
        <ele>139</ele>
        <time>2023-06-12T22:21:19Z</time>
      </trkpt>
      <trkpt lat="48.89278" lon="-0.2019">
        <ele>140</ele>
        <time>2023-06-12T22:21:26Z</time>
      </trkpt>
      <trkpt lat="48.89271" lon="-0.20222">
        <ele>140</ele>
        <time>2023-06-12T22:21:32Z</time>
      </trkpt>
      <trkpt lat="48.89266" lon="-0.20264">
        <ele>141</ele>
        <time>2023-06-12T22:21:38Z</time>
      </trkpt>
      <trkpt lat="48.89282" lon="-0.20264">
        <ele>142</ele>
        <time>2023-06-12T22:21:42Z</time>
      </trkpt>
      <trkpt lat="48.89278" lon="-0.20308">
        <ele>142</ele>
        <time>2023-06-12T22:21:49Z</time>
      </trkpt>
      <trkpt lat="48.89271" lon="-0.20336">
        <ele>143</ele>
        <time>2023-06-12T22:21:53Z</time>
      </trkpt>
    </trkseg>
  </trk>
</gpx>